<?xml version="1.0" encoding="UTF-8" standalone="no" ?>
<gpx xmlns="http://www.topografix.com/GPX/1/1" xmlns:xsi="http://www.w3.org/2001/XMLSchema-instance" xsi:schemaLocation="http://www.topografix.com/GPX/1/1 http://www.topografix.com/GPX/1/1/gpx.xsd" version="1.1" creator="VisuGPX - https://www.visugpx.com">
  <metadata>
    <name>034SG81-8205392</name>
    <desc><![CDATA[
03]]></desc>
  </metadata>
  <trk>
    <name><![CDATA[034SG81-8205392]]></name>
    <trkseg>
      <trkpt lat="46.69885" lon="-1.93386">
        <ele>5</ele>
        <time>2018-03-20T21:42:49Z</time>
      </trkpt>
      <trkpt lat="46.69813" lon="-1.9341">
        <ele>5</ele>
        <time>2018-03-20T21:43:49Z</time>
      </trkpt>
      <trkpt lat="46.69793" lon="-1.9342">
        <ele>5</ele>
        <time>2018-03-20T21:44:49Z</time>
      </trkpt>
      <trkpt lat="46.69793" lon="-1.93426">
        <ele>5</ele>
        <time>2018-03-20T21:45:49Z</time>
      </trkpt>
      <trkpt lat="46.6979" lon="-1.9343">
        <ele>5</ele>
        <time>2018-03-20T21:46:49Z</time>
      </trkpt>
      <trkpt lat="46.69785" lon="-1.93429">
        <ele>5</ele>
        <time>2018-03-20T21:47:49Z</time>
      </trkpt>
      <trkpt lat="46.69784" lon="-1.93422">
        <ele>5</ele>
        <time>2018-03-20T21:48:49Z</time>
      </trkpt>
      <trkpt lat="46.69777" lon="-1.93421">
        <ele>5</ele>
        <time>2018-03-20T21:49:49Z</time>
      </trkpt>
      <trkpt lat="46.69709" lon="-1.93437">
        <ele>5</ele>
        <time>2018-03-20T21:50:49Z</time>
      </trkpt>
      <trkpt lat="46.69684" lon="-1.93436">
        <ele>5</ele>
        <time>2018-03-20T21:51:49Z</time>
      </trkpt>
      <trkpt lat="46.69667" lon="-1.93431">
        <ele>5</ele>
        <time>2018-03-20T21:52:49Z</time>
      </trkpt>
      <trkpt lat="46.69631" lon="-1.93425">
        <ele>4</ele>
        <time>2018-03-20T21:53:49Z</time>
      </trkpt>
      <trkpt lat="46.69631" lon="-1.93428">
        <ele>4</ele>
        <time>2018-03-20T21:54:49Z</time>
      </trkpt>
      <trkpt lat="46.69627" lon="-1.93435">
        <ele>4</ele>
        <time>2018-03-20T21:55:49Z</time>
      </trkpt>
      <trkpt lat="46.69621" lon="-1.93435">
        <ele>4</ele>
        <time>2018-03-20T21:56:49Z</time>
      </trkpt>
      <trkpt lat="46.69596" lon="-1.93577">
        <ele>4</ele>
        <time>2018-03-20T21:57:49Z</time>
      </trkpt>
      <trkpt lat="46.69601" lon="-1.93581">
        <ele>4</ele>
        <time>2018-03-20T21:58:49Z</time>
      </trkpt>
      <trkpt lat="46.69617" lon="-1.93615">
        <ele>4</ele>
        <time>2018-03-20T21:59:49Z</time>
      </trkpt>
      <trkpt lat="46.69704" lon="-1.93707">
        <ele>3</ele>
        <time>2018-03-20T22:00:49Z</time>
      </trkpt>
      <trkpt lat="46.6976" lon="-1.93744">
        <ele>4</ele>
        <time>2018-03-20T22:01:49Z</time>
      </trkpt>
      <trkpt lat="46.6976" lon="-1.93744">
        <ele>4</ele>
        <time>2018-03-20T22:02:49Z</time>
      </trkpt>
      <trkpt lat="46.69879" lon="-1.93812">
        <ele>3</ele>
        <time>2018-03-20T22:03:49Z</time>
      </trkpt>
      <trkpt lat="46.70072" lon="-1.93884">
        <ele>3</ele>
        <time>2018-03-20T22:04:49Z</time>
      </trkpt>
      <trkpt lat="46.70114" lon="-1.93907">
        <ele>3</ele>
        <time>2018-03-20T22:05:49Z</time>
      </trkpt>
      <trkpt lat="46.70143" lon="-1.93933">
        <ele>3</ele>
        <time>2018-03-20T22:06:49Z</time>
      </trkpt>
      <trkpt lat="46.70148" lon="-1.93927">
        <ele>3</ele>
        <time>2018-03-20T22:07:49Z</time>
      </trkpt>
      <trkpt lat="46.70153" lon="-1.93925">
        <ele>3</ele>
        <time>2018-03-20T22:08:49Z</time>
      </trkpt>
      <trkpt lat="46.70158" lon="-1.93928">
        <ele>3</ele>
        <time>2018-03-20T22:09:49Z</time>
      </trkpt>
      <trkpt lat="46.70162" lon="-1.93938">
        <ele>3</ele>
        <time>2018-03-20T22:10:49Z</time>
      </trkpt>
      <trkpt lat="46.70162" lon="-1.93946">
        <ele>3</ele>
        <time>2018-03-20T22:11:49Z</time>
      </trkpt>
      <trkpt lat="46.70159" lon="-1.93953">
        <ele>3</ele>
        <time>2018-03-20T22:12:49Z</time>
      </trkpt>
      <trkpt lat="46.7015" lon="-1.93956">
        <ele>3</ele>
        <time>2018-03-20T22:13:49Z</time>
      </trkpt>
      <trkpt lat="46.70151" lon="-1.93989">
        <ele>2</ele>
        <time>2018-03-20T22:14:49Z</time>
      </trkpt>
      <trkpt lat="46.70183" lon="-1.94256">
        <ele>5</ele>
        <time>2018-03-20T22:15:49Z</time>
      </trkpt>
      <trkpt lat="46.70183" lon="-1.94268">
        <ele>5</ele>
        <time>2018-03-20T22:16:49Z</time>
      </trkpt>
      <trkpt lat="46.70168" lon="-1.94427">
        <ele>4</ele>
        <time>2018-03-20T22:17:49Z</time>
      </trkpt>
      <trkpt lat="46.70165" lon="-1.94576">
        <ele>4</ele>
        <time>2018-03-20T22:18:49Z</time>
      </trkpt>
      <trkpt lat="46.70165" lon="-1.94656">
        <ele>4</ele>
        <time>2018-03-20T22:19:49Z</time>
      </trkpt>
      <trkpt lat="46.7017" lon="-1.94658">
        <ele>4</ele>
        <time>2018-03-20T22:20:49Z</time>
      </trkpt>
      <trkpt lat="46.70174" lon="-1.94664">
        <ele>4</ele>
        <time>2018-03-20T22:21:49Z</time>
      </trkpt>
      <trkpt lat="46.70175" lon="-1.94674">
        <ele>4</ele>
        <time>2018-03-20T22:22:49Z</time>
      </trkpt>
      <trkpt lat="46.70191" lon="-1.94682">
        <ele>4</ele>
        <time>2018-03-20T22:23:49Z</time>
      </trkpt>
      <trkpt lat="46.70256" lon="-1.94707">
        <ele>3</ele>
        <time>2018-03-20T22:24:49Z</time>
      </trkpt>
      <trkpt lat="46.70314" lon="-1.94724">
        <ele>3</ele>
        <time>2018-03-20T22:25:49Z</time>
      </trkpt>
      <trkpt lat="46.7034" lon="-1.94733">
        <ele>3</ele>
        <time>2018-03-20T22:26:49Z</time>
      </trkpt>
      <trkpt lat="46.70354" lon="-1.94736">
        <ele>3</ele>
        <time>2018-03-20T22:27:49Z</time>
      </trkpt>
      <trkpt lat="46.70363" lon="-1.94735">
        <ele>3</ele>
        <time>2018-03-20T22:28:49Z</time>
      </trkpt>
      <trkpt lat="46.70363" lon="-1.94735">
        <ele>3</ele>
        <time>2018-03-20T22:29:49Z</time>
      </trkpt>
      <trkpt lat="46.70392" lon="-1.94729">
        <ele>3</ele>
        <time>2018-03-20T22:30:49Z</time>
      </trkpt>
      <trkpt lat="46.70472" lon="-1.94704">
        <ele>5</ele>
        <time>2018-03-20T22:31:49Z</time>
      </trkpt>
      <trkpt lat="46.70495" lon="-1.947">
        <ele>6</ele>
        <time>2018-03-20T22:32:49Z</time>
      </trkpt>
      <trkpt lat="46.70695" lon="-1.94689">
        <ele>9</ele>
        <time>2018-03-20T22:33:49Z</time>
      </trkpt>
      <trkpt lat="46.70721" lon="-1.9469">
        <ele>8</ele>
        <time>2018-03-20T22:34:49Z</time>
      </trkpt>
      <trkpt lat="46.70859" lon="-1.94679">
        <ele>9</ele>
        <time>2018-03-20T22:35:49Z</time>
      </trkpt>
      <trkpt lat="46.71052" lon="-1.94679">
        <ele>11</ele>
        <time>2018-03-20T22:36:49Z</time>
      </trkpt>
      <trkpt lat="46.71097" lon="-1.94696">
        <ele>10</ele>
        <time>2018-03-20T22:37:49Z</time>
      </trkpt>
      <trkpt lat="46.71113" lon="-1.94697">
        <ele>9</ele>
        <time>2018-03-20T22:38:49Z</time>
      </trkpt>
      <trkpt lat="46.71135" lon="-1.94687">
        <ele>9</ele>
        <time>2018-03-20T22:39:49Z</time>
      </trkpt>
      <trkpt lat="46.71212" lon="-1.94644">
        <ele>6</ele>
        <time>2018-03-20T22:40:49Z</time>
      </trkpt>
      <trkpt lat="46.71257" lon="-1.94633">
        <ele>5</ele>
        <time>2018-03-20T22:41:49Z</time>
      </trkpt>
      <trkpt lat="46.71325" lon="-1.94605">
        <ele>8</ele>
        <time>2018-03-20T22:42:49Z</time>
      </trkpt>
      <trkpt lat="46.71366" lon="-1.9459">
        <ele>10</ele>
        <time>2018-03-20T22:43:49Z</time>
      </trkpt>
      <trkpt lat="46.71422" lon="-1.94578">
        <ele>12</ele>
        <time>2018-03-20T22:44:49Z</time>
      </trkpt>
      <trkpt lat="46.71472" lon="-1.94575">
        <ele>14</ele>
        <time>2018-03-20T22:45:49Z</time>
      </trkpt>
      <trkpt lat="46.71493" lon="-1.94571">
        <ele>15</ele>
        <time>2018-03-20T22:46:49Z</time>
      </trkpt>
      <trkpt lat="46.71562" lon="-1.94542">
        <ele>15</ele>
        <time>2018-03-20T22:47:49Z</time>
      </trkpt>
      <trkpt lat="46.71597" lon="-1.94532">
        <ele>15</ele>
        <time>2018-03-20T22:48:49Z</time>
      </trkpt>
      <trkpt lat="46.71751" lon="-1.94512">
        <ele>12</ele>
        <time>2018-03-20T22:49:49Z</time>
      </trkpt>
      <trkpt lat="46.71831" lon="-1.94496">
        <ele>12</ele>
        <time>2018-03-20T22:50:49Z</time>
      </trkpt>
      <trkpt lat="46.71908" lon="-1.94487">
        <ele>10</ele>
        <time>2018-03-20T22:51:49Z</time>
      </trkpt>
      <trkpt lat="46.72011" lon="-1.94469">
        <ele>12</ele>
        <time>2018-03-20T22:52:49Z</time>
      </trkpt>
      <trkpt lat="46.72023" lon="-1.94461">
        <ele>12</ele>
        <time>2018-03-20T22:53:49Z</time>
      </trkpt>
      <trkpt lat="46.72054" lon="-1.94428">
        <ele>12</ele>
        <time>2018-03-20T22:54:49Z</time>
      </trkpt>
      <trkpt lat="46.72065" lon="-1.94458">
        <ele>12</ele>
        <time>2018-03-20T22:55:49Z</time>
      </trkpt>
      <trkpt lat="46.72072" lon="-1.94468">
        <ele>12</ele>
        <time>2018-03-20T22:56:49Z</time>
      </trkpt>
      <trkpt lat="46.72089" lon="-1.9448">
        <ele>13</ele>
        <time>2018-03-20T22:57:49Z</time>
      </trkpt>
      <trkpt lat="46.72089" lon="-1.9448">
        <ele>13</ele>
        <time>2018-03-20T22:58:49Z</time>
      </trkpt>
      <trkpt lat="46.72111" lon="-1.94496">
        <ele>12</ele>
        <time>2018-03-20T22:59:49Z</time>
      </trkpt>
      <trkpt lat="46.7217" lon="-1.94513">
        <ele>11</ele>
        <time>2018-03-20T23:00:49Z</time>
      </trkpt>
      <trkpt lat="46.7218" lon="-1.94532">
        <ele>11</ele>
        <time>2018-03-20T23:01:49Z</time>
      </trkpt>
      <trkpt lat="46.72193" lon="-1.94565">
        <ele>10</ele>
        <time>2018-03-20T23:02:49Z</time>
      </trkpt>
      <trkpt lat="46.72272" lon="-1.94685">
        <ele>9</ele>
        <time>2018-03-20T23:03:49Z</time>
      </trkpt>
      <trkpt lat="46.72281" lon="-1.94703">
        <ele>9</ele>
        <time>2018-03-20T23:04:49Z</time>
      </trkpt>
      <trkpt lat="46.72297" lon="-1.94773">
        <ele>8</ele>
        <time>2018-03-20T23:05:49Z</time>
      </trkpt>
      <trkpt lat="46.72314" lon="-1.94833">
        <ele>7</ele>
        <time>2018-03-20T23:06:49Z</time>
      </trkpt>
      <trkpt lat="46.72339" lon="-1.94882">
        <ele>7</ele>
        <time>2018-03-20T23:07:49Z</time>
      </trkpt>
      <trkpt lat="46.72348" lon="-1.94893">
        <ele>7</ele>
        <time>2018-03-20T23:08:49Z</time>
      </trkpt>
      <trkpt lat="46.72369" lon="-1.949">
        <ele>6</ele>
        <time>2018-03-20T23:09:49Z</time>
      </trkpt>
      <trkpt lat="46.72386" lon="-1.94903">
        <ele>6</ele>
        <time>2018-03-20T23:10:49Z</time>
      </trkpt>
      <trkpt lat="46.72428" lon="-1.94904">
        <ele>6</ele>
        <time>2018-03-20T23:11:49Z</time>
      </trkpt>
      <trkpt lat="46.72462" lon="-1.94909">
        <ele>5</ele>
        <time>2018-03-20T23:12:49Z</time>
      </trkpt>
      <trkpt lat="46.72516" lon="-1.94936">
        <ele>5</ele>
        <time>2018-03-20T23:13:49Z</time>
      </trkpt>
      <trkpt lat="46.72567" lon="-1.94952">
        <ele>5</ele>
        <time>2018-03-20T23:14:49Z</time>
      </trkpt>
      <trkpt lat="46.72637" lon="-1.94957">
        <ele>4</ele>
        <time>2018-03-20T23:15:49Z</time>
      </trkpt>
      <trkpt lat="46.72715" lon="-1.94949">
        <ele>4</ele>
        <time>2018-03-20T23:16:49Z</time>
      </trkpt>
      <trkpt lat="46.72728" lon="-1.94943">
        <ele>4</ele>
        <time>2018-03-20T23:17:49Z</time>
      </trkpt>
      <trkpt lat="46.72735" lon="-1.94937">
        <ele>4</ele>
        <time>2018-03-20T23:18:49Z</time>
      </trkpt>
      <trkpt lat="46.72749" lon="-1.94913">
        <ele>4</ele>
        <time>2018-03-20T23:19:49Z</time>
      </trkpt>
      <trkpt lat="46.72754" lon="-1.94896">
        <ele>4</ele>
        <time>2018-03-20T23:20:49Z</time>
      </trkpt>
      <trkpt lat="46.72761" lon="-1.94884">
        <ele>5</ele>
        <time>2018-03-20T23:21:49Z</time>
      </trkpt>
      <trkpt lat="46.72773" lon="-1.94875">
        <ele>5</ele>
        <time>2018-03-20T23:22:49Z</time>
      </trkpt>
      <trkpt lat="46.7278" lon="-1.94874">
        <ele>5</ele>
        <time>2018-03-20T23:23:49Z</time>
      </trkpt>
      <trkpt lat="46.72787" lon="-1.94874">
        <ele>5</ele>
        <time>2018-03-20T23:24:49Z</time>
      </trkpt>
      <trkpt lat="46.72799" lon="-1.94882">
        <ele>4</ele>
        <time>2018-03-20T23:25:49Z</time>
      </trkpt>
      <trkpt lat="46.72804" lon="-1.94889">
        <ele>4</ele>
        <time>2018-03-20T23:26:49Z</time>
      </trkpt>
      <trkpt lat="46.72811" lon="-1.94905">
        <ele>4</ele>
        <time>2018-03-20T23:27:49Z</time>
      </trkpt>
      <trkpt lat="46.72818" lon="-1.94914">
        <ele>4</ele>
        <time>2018-03-20T23:28:49Z</time>
      </trkpt>
      <trkpt lat="46.72825" lon="-1.9492">
        <ele>4</ele>
        <time>2018-03-20T23:29:49Z</time>
      </trkpt>
      <trkpt lat="46.72834" lon="-1.94924">
        <ele>4</ele>
        <time>2018-03-20T23:30:49Z</time>
      </trkpt>
      <trkpt lat="46.72847" lon="-1.94927">
        <ele>4</ele>
        <time>2018-03-20T23:31:49Z</time>
      </trkpt>
      <trkpt lat="46.72885" lon="-1.94924">
        <ele>4</ele>
        <time>2018-03-20T23:32:49Z</time>
      </trkpt>
      <trkpt lat="46.72898" lon="-1.94926">
        <ele>4</ele>
        <time>2018-03-20T23:33:49Z</time>
      </trkpt>
      <trkpt lat="46.72938" lon="-1.94938">
        <ele>5</ele>
        <time>2018-03-20T23:34:49Z</time>
      </trkpt>
      <trkpt lat="46.72976" lon="-1.94952">
        <ele>5</ele>
        <time>2018-03-20T23:35:49Z</time>
      </trkpt>
      <trkpt lat="46.72976" lon="-1.94952">
        <ele>5</ele>
        <time>2018-03-20T23:36:49Z</time>
      </trkpt>
      <trkpt lat="46.73044" lon="-1.94977">
        <ele>7</ele>
        <time>2018-03-20T23:37:49Z</time>
      </trkpt>
      <trkpt lat="46.73128" lon="-1.95005">
        <ele>7</ele>
        <time>2018-03-20T23:38:49Z</time>
      </trkpt>
      <trkpt lat="46.73429" lon="-1.95059">
        <ele>5</ele>
        <time>2018-03-20T23:39:49Z</time>
      </trkpt>
      <trkpt lat="46.73481" lon="-1.95061">
        <ele>4</ele>
        <time>2018-03-20T23:40:49Z</time>
      </trkpt>
      <trkpt lat="46.73494" lon="-1.95055">
        <ele>4</ele>
        <time>2018-03-20T23:41:49Z</time>
      </trkpt>
      <trkpt lat="46.73497" lon="-1.95055">
        <ele>4</ele>
        <time>2018-03-20T23:42:49Z</time>
      </trkpt>
      <trkpt lat="46.73499" lon="-1.95056">
        <ele>4</ele>
        <time>2018-03-20T23:43:49Z</time>
      </trkpt>
      <trkpt lat="46.7351" lon="-1.95075">
        <ele>4</ele>
        <time>2018-03-20T23:44:49Z</time>
      </trkpt>
      <trkpt lat="46.73549" lon="-1.95091">
        <ele>3</ele>
        <time>2018-03-20T23:45:49Z</time>
      </trkpt>
      <trkpt lat="46.73778" lon="-1.95229">
        <ele>4</ele>
        <time>2018-03-20T23:46:49Z</time>
      </trkpt>
      <trkpt lat="46.73872" lon="-1.95264">
        <ele>3</ele>
        <time>2018-03-20T23:47:49Z</time>
      </trkpt>
      <trkpt lat="46.73989" lon="-1.95314">
        <ele>5</ele>
        <time>2018-03-20T23:48:49Z</time>
      </trkpt>
      <trkpt lat="46.74103" lon="-1.95397">
        <ele>4</ele>
        <time>2018-03-20T23:49:49Z</time>
      </trkpt>
      <trkpt lat="46.74184" lon="-1.95449">
        <ele>2</ele>
        <time>2018-03-20T23:50:49Z</time>
      </trkpt>
      <trkpt lat="46.74285" lon="-1.95482">
        <ele>1</ele>
        <time>2018-03-20T23:51:49Z</time>
      </trkpt>
      <trkpt lat="46.74397" lon="-1.95503">
        <ele>2</ele>
        <time>2018-03-20T23:52:49Z</time>
      </trkpt>
      <trkpt lat="46.74449" lon="-1.95517">
        <ele>2</ele>
        <time>2018-03-20T23:53:49Z</time>
      </trkpt>
      <trkpt lat="46.74458" lon="-1.95514">
        <ele>2</ele>
        <time>2018-03-20T23:54:49Z</time>
      </trkpt>
      <trkpt lat="46.74465" lon="-1.9552">
        <ele>1</ele>
        <time>2018-03-20T23:55:49Z</time>
      </trkpt>
      <trkpt lat="46.74467" lon="-1.95525">
        <ele>1</ele>
        <time>2018-03-20T23:56:49Z</time>
      </trkpt>
      <trkpt lat="46.74469" lon="-1.95535">
        <ele>1</ele>
        <time>2018-03-20T23:57:49Z</time>
      </trkpt>
      <trkpt lat="46.74468" lon="-1.9554">
        <ele>1</ele>
        <time>2018-03-20T23:58:49Z</time>
      </trkpt>
      <trkpt lat="46.74472" lon="-1.95541">
        <ele>1</ele>
        <time>2018-03-20T23:59:49Z</time>
      </trkpt>
      <trkpt lat="46.74638" lon="-1.95578">
        <ele>2</ele>
        <time>2018-03-21T00:00:49Z</time>
      </trkpt>
      <trkpt lat="46.74691" lon="-1.95578">
        <ele>2</ele>
        <time>2018-03-21T00:01:49Z</time>
      </trkpt>
      <trkpt lat="46.74691" lon="-1.95578">
        <ele>2</ele>
        <time>2018-03-21T00:02:49Z</time>
      </trkpt>
      <trkpt lat="46.7477" lon="-1.95572">
        <ele>1</ele>
        <time>2018-03-21T00:03:49Z</time>
      </trkpt>
      <trkpt lat="46.74806" lon="-1.95576">
        <ele>2</ele>
        <time>2018-03-21T00:04:49Z</time>
      </trkpt>
      <trkpt lat="46.74835" lon="-1.95585">
        <ele>2</ele>
        <time>2018-03-21T00:05:49Z</time>
      </trkpt>
      <trkpt lat="46.75006" lon="-1.95668">
        <ele>1</ele>
        <time>2018-03-21T00:06:49Z</time>
      </trkpt>
      <trkpt lat="46.7506" lon="-1.95692">
        <ele>1</ele>
        <time>2018-03-21T00:07:49Z</time>
      </trkpt>
      <trkpt lat="46.75087" lon="-1.95702">
        <ele>1</ele>
        <time>2018-03-21T00:08:49Z</time>
      </trkpt>
      <trkpt lat="46.75116" lon="-1.95707">
        <ele>1</ele>
        <time>2018-03-21T00:09:49Z</time>
      </trkpt>
      <trkpt lat="46.75225" lon="-1.95712">
        <ele>1</ele>
        <time>2018-03-21T00:10:49Z</time>
      </trkpt>
      <trkpt lat="46.75263" lon="-1.9572">
        <ele>1</ele>
        <time>2018-03-21T00:11:49Z</time>
      </trkpt>
      <trkpt lat="46.75433" lon="-1.95807">
        <ele>2</ele>
        <time>2018-03-21T00:12:49Z</time>
      </trkpt>
      <trkpt lat="46.75532" lon="-1.95861">
        <ele>2</ele>
        <time>2018-03-21T00:13:49Z</time>
      </trkpt>
      <trkpt lat="46.75698" lon="-1.95907">
        <ele>3</ele>
        <time>2018-03-21T00:14:49Z</time>
      </trkpt>
      <trkpt lat="46.75744" lon="-1.95914">
        <ele>2</ele>
        <time>2018-03-21T00:15:49Z</time>
      </trkpt>
      <trkpt lat="46.75989" lon="-1.95928">
        <ele>5</ele>
        <time>2018-03-21T00:16:49Z</time>
      </trkpt>
      <trkpt lat="46.7603" lon="-1.95935">
        <ele>5</ele>
        <time>2018-03-21T00:17:49Z</time>
      </trkpt>
      <trkpt lat="46.76105" lon="-1.95961">
        <ele>4</ele>
        <time>2018-03-21T00:18:49Z</time>
      </trkpt>
      <trkpt lat="46.76148" lon="-1.95979">
        <ele>3</ele>
        <time>2018-03-21T00:19:49Z</time>
      </trkpt>
      <trkpt lat="46.76219" lon="-1.96014">
        <ele>4</ele>
        <time>2018-03-21T00:20:49Z</time>
      </trkpt>
      <trkpt lat="46.76318" lon="-1.96079">
        <ele>3</ele>
        <time>2018-03-21T00:21:49Z</time>
      </trkpt>
      <trkpt lat="46.76378" lon="-1.96105">
        <ele>2</ele>
        <time>2018-03-21T00:22:49Z</time>
      </trkpt>
      <trkpt lat="46.76682" lon="-1.96215">
        <ele>3</ele>
        <time>2018-03-21T00:23:49Z</time>
      </trkpt>
      <trkpt lat="46.76809" lon="-1.96258">
        <ele>3</ele>
        <time>2018-03-21T00:24:49Z</time>
      </trkpt>
      <trkpt lat="46.76892" lon="-1.96275">
        <ele>4</ele>
        <time>2018-03-21T00:25:49Z</time>
      </trkpt>
      <trkpt lat="46.77099" lon="-1.96301">
        <ele>6</ele>
        <time>2018-03-21T00:26:49Z</time>
      </trkpt>
      <trkpt lat="46.77129" lon="-1.96306">
        <ele>6</ele>
        <time>2018-03-21T00:27:49Z</time>
      </trkpt>
      <trkpt lat="46.7714" lon="-1.96312">
        <ele>6</ele>
        <time>2018-03-21T00:28:49Z</time>
      </trkpt>
      <trkpt lat="46.77153" lon="-1.96315">
        <ele>6</ele>
        <time>2018-03-21T00:29:49Z</time>
      </trkpt>
      <trkpt lat="46.77157" lon="-1.96302">
        <ele>6</ele>
        <time>2018-03-21T00:30:49Z</time>
      </trkpt>
      <trkpt lat="46.77166" lon="-1.96297">
        <ele>6</ele>
        <time>2018-03-21T00:31:49Z</time>
      </trkpt>
      <trkpt lat="46.77175" lon="-1.96303">
        <ele>6</ele>
        <time>2018-03-21T00:32:49Z</time>
      </trkpt>
      <trkpt lat="46.77178" lon="-1.96319">
        <ele>6</ele>
        <time>2018-03-21T00:33:49Z</time>
      </trkpt>
      <trkpt lat="46.77176" lon="-1.96323">
        <ele>6</ele>
        <time>2018-03-21T00:34:49Z</time>
      </trkpt>
      <trkpt lat="46.77192" lon="-1.96329">
        <ele>6</ele>
        <time>2018-03-21T00:35:49Z</time>
      </trkpt>
      <trkpt lat="46.77223" lon="-1.96351">
        <ele>5</ele>
        <time>2018-03-21T00:36:49Z</time>
      </trkpt>
      <trkpt lat="46.77305" lon="-1.96427">
        <ele>5</ele>
        <time>2018-03-21T00:37:49Z</time>
      </trkpt>
      <trkpt lat="46.77479" lon="-1.966">
        <ele>6</ele>
        <time>2018-03-21T00:38:49Z</time>
      </trkpt>
      <trkpt lat="46.7766" lon="-1.96774">
        <ele>3</ele>
        <time>2018-03-21T00:39:49Z</time>
      </trkpt>
      <trkpt lat="46.77713" lon="-1.96822">
        <ele>3</ele>
        <time>2018-03-21T00:40:49Z</time>
      </trkpt>
      <trkpt lat="46.77751" lon="-1.9685">
        <ele>4</ele>
        <time>2018-03-21T00:41:49Z</time>
      </trkpt>
      <trkpt lat="46.7779" lon="-1.96871">
        <ele>4</ele>
        <time>2018-03-21T00:42:49Z</time>
      </trkpt>
      <trkpt lat="46.77912" lon="-1.9692">
        <ele>3</ele>
        <time>2018-03-21T00:43:49Z</time>
      </trkpt>
      <trkpt lat="46.77947" lon="-1.96937">
        <ele>3</ele>
        <time>2018-03-21T00:44:49Z</time>
      </trkpt>
      <trkpt lat="46.78223" lon="-1.97089">
        <ele>3</ele>
        <time>2018-03-21T00:45:49Z</time>
      </trkpt>
      <trkpt lat="46.78399" lon="-1.97188">
        <ele>5</ele>
        <time>2018-03-21T00:46:49Z</time>
      </trkpt>
      <trkpt lat="46.78429" lon="-1.97203">
        <ele>5</ele>
        <time>2018-03-21T00:47:49Z</time>
      </trkpt>
      <trkpt lat="46.78486" lon="-1.97229">
        <ele>4</ele>
        <time>2018-03-21T00:48:49Z</time>
      </trkpt>
      <trkpt lat="46.7853" lon="-1.97246">
        <ele>5</ele>
        <time>2018-03-21T00:49:49Z</time>
      </trkpt>
      <trkpt lat="46.78861" lon="-1.9737">
        <ele>4</ele>
        <time>2018-03-21T00:50:49Z</time>
      </trkpt>
      <trkpt lat="46.78956" lon="-1.97409">
        <ele>2</ele>
        <time>2018-03-21T00:51:49Z</time>
      </trkpt>
      <trkpt lat="46.78993" lon="-1.97435">
        <ele>2</ele>
        <time>2018-03-21T00:52:49Z</time>
      </trkpt>
      <trkpt lat="46.79024" lon="-1.97468">
        <ele>1</ele>
        <time>2018-03-21T00:53:49Z</time>
      </trkpt>
      <trkpt lat="46.7905" lon="-1.97507">
        <ele>1</ele>
        <time>2018-03-21T00:54:49Z</time>
      </trkpt>
      <trkpt lat="46.79079" lon="-1.97562">
        <ele>1</ele>
        <time>2018-03-21T00:55:49Z</time>
      </trkpt>
      <trkpt lat="46.79157" lon="-1.97698">
        <ele>2</ele>
        <time>2018-03-21T00:56:49Z</time>
      </trkpt>
      <trkpt lat="46.79157" lon="-1.97698">
        <ele>2</ele>
        <time>2018-03-21T00:57:49Z</time>
      </trkpt>
      <trkpt lat="46.79249" lon="-1.97883">
        <ele>1</ele>
        <time>2018-03-21T00:58:49Z</time>
      </trkpt>
      <trkpt lat="46.79275" lon="-1.97915">
        <ele>1</ele>
        <time>2018-03-21T00:59:49Z</time>
      </trkpt>
      <trkpt lat="46.79308" lon="-1.97928">
        <ele>1</ele>
        <time>2018-03-21T01:00:49Z</time>
      </trkpt>
      <trkpt lat="46.79341" lon="-1.97926">
        <ele>1</ele>
        <time>2018-03-21T01:01:49Z</time>
      </trkpt>
      <trkpt lat="46.79506" lon="-1.97906">
        <ele>1.9</ele>
        <time>2018-03-21T01:02:49Z</time>
      </trkpt>
      <trkpt lat="46.7955" lon="-1.97899">
        <ele>1.9</ele>
        <time>2018-03-21T01:03:49Z</time>
      </trkpt>
      <trkpt lat="46.79596" lon="-1.97889">
        <ele>2</ele>
        <time>2018-03-21T01:04:49Z</time>
      </trkpt>
      <trkpt lat="46.79716" lon="-1.97838">
        <ele>1</ele>
        <time>2018-03-21T01:05:49Z</time>
      </trkpt>
      <trkpt lat="46.79763" lon="-1.97823">
        <ele>1</ele>
        <time>2018-03-21T01:06:49Z</time>
      </trkpt>
      <trkpt lat="46.798" lon="-1.9782">
        <ele>2</ele>
        <time>2018-03-21T01:07:49Z</time>
      </trkpt>
      <trkpt lat="46.79838" lon="-1.97831">
        <ele>2</ele>
        <time>2018-03-21T01:08:49Z</time>
      </trkpt>
      <trkpt lat="46.79877" lon="-1.97852">
        <ele>2</ele>
        <time>2018-03-21T01:09:49Z</time>
      </trkpt>
      <trkpt lat="46.79917" lon="-1.9788">
        <ele>2</ele>
        <time>2018-03-21T01:10:49Z</time>
      </trkpt>
      <trkpt lat="46.79949" lon="-1.97912">
        <ele>2</ele>
        <time>2018-03-21T01:11:49Z</time>
      </trkpt>
      <trkpt lat="46.8001" lon="-1.97983">
        <ele>2.1</ele>
        <time>2018-03-21T01:12:49Z</time>
      </trkpt>
      <trkpt lat="46.80042" lon="-1.98009">
        <ele>2.3</ele>
        <time>2018-03-21T01:13:49Z</time>
      </trkpt>
      <trkpt lat="46.80112" lon="-1.98041">
        <ele>2</ele>
        <time>2018-03-21T01:14:49Z</time>
      </trkpt>
      <trkpt lat="46.80223" lon="-1.98085">
        <ele>2</ele>
        <time>2018-03-21T01:15:49Z</time>
      </trkpt>
      <trkpt lat="46.80254" lon="-1.98102">
        <ele>2</ele>
        <time>2018-03-21T01:16:49Z</time>
      </trkpt>
      <trkpt lat="46.80281" lon="-1.98126">
        <ele>2</ele>
        <time>2018-03-21T01:17:49Z</time>
      </trkpt>
      <trkpt lat="46.80372" lon="-1.98228">
        <ele>2</ele>
        <time>2018-03-21T01:18:49Z</time>
      </trkpt>
      <trkpt lat="46.80434" lon="-1.98303">
        <ele>1</ele>
        <time>2018-03-21T01:19:49Z</time>
      </trkpt>
      <trkpt lat="46.80459" lon="-1.98323">
        <ele>1</ele>
        <time>2018-03-21T01:20:49Z</time>
      </trkpt>
      <trkpt lat="46.80468" lon="-1.98317">
        <ele>1</ele>
        <time>2018-03-21T01:21:49Z</time>
      </trkpt>
      <trkpt lat="46.80478" lon="-1.98316">
        <ele>1</ele>
        <time>2018-03-21T01:22:49Z</time>
      </trkpt>
      <trkpt lat="46.80487" lon="-1.98326">
        <ele>1</ele>
        <time>2018-03-21T01:23:49Z</time>
      </trkpt>
      <trkpt lat="46.8049" lon="-1.98348">
        <ele>1</ele>
        <time>2018-03-21T01:24:49Z</time>
      </trkpt>
      <trkpt lat="46.80489" lon="-1.98357">
        <ele>1</ele>
        <time>2018-03-21T01:25:49Z</time>
      </trkpt>
      <trkpt lat="46.80512" lon="-1.98392">
        <ele>2.5</ele>
        <time>2018-03-21T01:26:49Z</time>
      </trkpt>
      <trkpt lat="46.80524" lon="-1.98402">
        <ele>2.1</ele>
        <time>2018-03-21T01:27:49Z</time>
      </trkpt>
      <trkpt lat="46.808" lon="-1.98697">
        <ele>1.9</ele>
        <time>2018-03-21T01:28:49Z</time>
      </trkpt>
      <trkpt lat="46.80837" lon="-1.98733">
        <ele>2</ele>
        <time>2018-03-21T01:29:49Z</time>
      </trkpt>
      <trkpt lat="46.81054" lon="-1.9891">
        <ele>1</ele>
        <time>2018-03-21T01:30:49Z</time>
      </trkpt>
      <trkpt lat="46.81082" lon="-1.98919">
        <ele>1</ele>
        <time>2018-03-21T01:31:49Z</time>
      </trkpt>
      <trkpt lat="46.81101" lon="-1.98919">
        <ele>1</ele>
        <time>2018-03-21T01:32:49Z</time>
      </trkpt>
      <trkpt lat="46.81118" lon="-1.98914">
        <ele>1</ele>
        <time>2018-03-21T01:33:49Z</time>
      </trkpt>
      <trkpt lat="46.81146" lon="-1.98879">
        <ele>1</ele>
        <time>2018-03-21T01:34:49Z</time>
      </trkpt>
      <trkpt lat="46.81162" lon="-1.98849">
        <ele>1</ele>
        <time>2018-03-21T01:35:49Z</time>
      </trkpt>
      <trkpt lat="46.81183" lon="-1.98825">
        <ele>2</ele>
        <time>2018-03-21T01:36:49Z</time>
      </trkpt>
      <trkpt lat="46.81194" lon="-1.98817">
        <ele>2</ele>
        <time>2018-03-21T01:37:49Z</time>
      </trkpt>
      <trkpt lat="46.81213" lon="-1.98818">
        <ele>1.3</ele>
        <time>2018-03-21T01:38:49Z</time>
      </trkpt>
      <trkpt lat="46.81242" lon="-1.98831">
        <ele>1.7</ele>
        <time>2018-03-21T01:39:49Z</time>
      </trkpt>
      <trkpt lat="46.81529" lon="-1.99117">
        <ele>2</ele>
        <time>2018-03-21T01:40:49Z</time>
      </trkpt>
      <trkpt lat="46.81591" lon="-1.99177">
        <ele>1</ele>
        <time>2018-03-21T01:41:49Z</time>
      </trkpt>
      <trkpt lat="46.81621" lon="-1.99202">
        <ele>2</ele>
        <time>2018-03-21T01:42:49Z</time>
      </trkpt>
      <trkpt lat="46.81657" lon="-1.99222">
        <ele>2</ele>
        <time>2018-03-21T01:43:49Z</time>
      </trkpt>
      <trkpt lat="46.81714" lon="-1.9924">
        <ele>1</ele>
        <time>2018-03-21T01:44:49Z</time>
      </trkpt>
      <trkpt lat="46.81867" lon="-1.99279">
        <ele>2</ele>
        <time>2018-03-21T01:45:49Z</time>
      </trkpt>
      <trkpt lat="46.81899" lon="-1.99283">
        <ele>2</ele>
        <time>2018-03-21T01:46:49Z</time>
      </trkpt>
      <trkpt lat="46.81906" lon="-1.99281">
        <ele>2</ele>
        <time>2018-03-21T01:47:49Z</time>
      </trkpt>
      <trkpt lat="46.81927" lon="-1.99305">
        <ele>2</ele>
        <time>2018-03-21T01:48:49Z</time>
      </trkpt>
      <trkpt lat="46.81957" lon="-1.9932">
        <ele>2</ele>
        <time>2018-03-21T01:49:49Z</time>
      </trkpt>
      <trkpt lat="46.82" lon="-1.99339">
        <ele>2</ele>
        <time>2018-03-21T01:50:49Z</time>
      </trkpt>
      <trkpt lat="46.8212" lon="-1.99381">
        <ele>1</ele>
        <time>2018-03-21T01:51:49Z</time>
      </trkpt>
      <trkpt lat="46.82181" lon="-1.99421">
        <ele>1</ele>
        <time>2018-03-21T01:52:49Z</time>
      </trkpt>
      <trkpt lat="46.8225" lon="-1.99473">
        <ele>2</ele>
        <time>2018-03-21T01:53:49Z</time>
      </trkpt>
      <trkpt lat="46.82315" lon="-1.99518">
        <ele>2</ele>
        <time>2018-03-21T01:54:49Z</time>
      </trkpt>
      <trkpt lat="46.82353" lon="-1.99539">
        <ele>1</ele>
        <time>2018-03-21T01:55:49Z</time>
      </trkpt>
      <trkpt lat="46.82353" lon="-1.99539">
        <ele>1</ele>
        <time>2018-03-21T01:56:49Z</time>
      </trkpt>
      <trkpt lat="46.82367" lon="-1.99547">
        <ele>1</ele>
        <time>2018-03-21T01:57:49Z</time>
      </trkpt>
      <trkpt lat="46.82426" lon="-1.99562">
        <ele>2</ele>
        <time>2018-03-21T01:58:49Z</time>
      </trkpt>
      <trkpt lat="46.82432" lon="-1.99558">
        <ele>2</ele>
        <time>2018-03-21T01:59:49Z</time>
      </trkpt>
      <trkpt lat="46.82437" lon="-1.99549">
        <ele>1</ele>
        <time>2018-03-21T02:00:49Z</time>
      </trkpt>
      <trkpt lat="46.82451" lon="-1.9952">
        <ele>1</ele>
        <time>2018-03-21T02:01:49Z</time>
      </trkpt>
      <trkpt lat="46.82469" lon="-1.99494">
        <ele>2</ele>
        <time>2018-03-21T02:02:49Z</time>
      </trkpt>
      <trkpt lat="46.82481" lon="-1.99489">
        <ele>2</ele>
        <time>2018-03-21T02:03:49Z</time>
      </trkpt>
      <trkpt lat="46.82487" lon="-1.99484">
        <ele>1</ele>
        <time>2018-03-21T02:04:49Z</time>
      </trkpt>
      <trkpt lat="46.82501" lon="-1.9948">
        <ele>2</ele>
        <time>2018-03-21T02:05:49Z</time>
      </trkpt>
      <trkpt lat="46.82511" lon="-1.99479">
        <ele>2</ele>
        <time>2018-03-21T02:06:49Z</time>
      </trkpt>
      <trkpt lat="46.82523" lon="-1.99482">
        <ele>2</ele>
        <time>2018-03-21T02:07:49Z</time>
      </trkpt>
      <trkpt lat="46.826" lon="-1.99502">
        <ele>2</ele>
        <time>2018-03-21T02:08:49Z</time>
      </trkpt>
      <trkpt lat="46.82618" lon="-1.99503">
        <ele>2</ele>
        <time>2018-03-21T02:09:49Z</time>
      </trkpt>
      <trkpt lat="46.82638" lon="-1.99501">
        <ele>2</ele>
        <time>2018-03-21T02:10:49Z</time>
      </trkpt>
      <trkpt lat="46.82785" lon="-1.99468">
        <ele>2.2</ele>
        <time>2018-03-21T02:11:49Z</time>
      </trkpt>
      <trkpt lat="46.82823" lon="-1.99461">
        <ele>2.2</ele>
        <time>2018-03-21T02:12:49Z</time>
      </trkpt>
      <trkpt lat="46.82889" lon="-1.99468">
        <ele>2</ele>
        <time>2018-03-21T02:13:49Z</time>
      </trkpt>
      <trkpt lat="46.82908" lon="-1.99464">
        <ele>2</ele>
        <time>2018-03-21T02:14:49Z</time>
      </trkpt>
      <trkpt lat="46.82925" lon="-1.99455">
        <ele>1</ele>
        <time>2018-03-21T02:15:49Z</time>
      </trkpt>
      <trkpt lat="46.82977" lon="-1.99402">
        <ele>1</ele>
        <time>2018-03-21T02:16:49Z</time>
      </trkpt>
      <trkpt lat="46.83049" lon="-1.99324">
        <ele>1</ele>
        <time>2018-03-21T02:17:49Z</time>
      </trkpt>
      <trkpt lat="46.83079" lon="-1.99295">
        <ele>1</ele>
        <time>2018-03-21T02:18:49Z</time>
      </trkpt>
      <trkpt lat="46.83104" lon="-1.9928">
        <ele>1</ele>
        <time>2018-03-21T02:19:49Z</time>
      </trkpt>
      <trkpt lat="46.83134" lon="-1.9927">
        <ele>1</ele>
        <time>2018-03-21T02:20:49Z</time>
      </trkpt>
      <trkpt lat="46.83195" lon="-1.99257">
        <ele>1</ele>
        <time>2018-03-21T02:21:49Z</time>
      </trkpt>
      <trkpt lat="46.8332" lon="-1.99218">
        <ele>1</ele>
        <time>2018-03-21T02:22:49Z</time>
      </trkpt>
      <trkpt lat="46.83351" lon="-1.99204">
        <ele>1</ele>
        <time>2018-03-21T02:23:49Z</time>
      </trkpt>
      <trkpt lat="46.83469" lon="-1.99128">
        <ele>1</ele>
        <time>2018-03-21T02:24:49Z</time>
      </trkpt>
      <trkpt lat="46.83553" lon="-1.99083">
        <ele>2</ele>
        <time>2018-03-21T02:25:49Z</time>
      </trkpt>
      <trkpt lat="46.83716" lon="-1.99002">
        <ele>2</ele>
        <time>2018-03-21T02:26:49Z</time>
      </trkpt>
      <trkpt lat="46.83955" lon="-1.98897">
        <ele>1.6</ele>
        <time>2018-03-21T02:27:49Z</time>
      </trkpt>
      <trkpt lat="46.84002" lon="-1.98871">
        <ele>1</ele>
        <time>2018-03-21T02:28:49Z</time>
      </trkpt>
      <trkpt lat="46.84072" lon="-1.98842">
        <ele>1</ele>
        <time>2018-03-21T02:29:49Z</time>
      </trkpt>
      <trkpt lat="46.84146" lon="-1.98816">
        <ele>1</ele>
        <time>2018-03-21T02:30:49Z</time>
      </trkpt>
      <trkpt lat="46.84308" lon="-1.9878">
        <ele>1</ele>
        <time>2018-03-21T02:31:49Z</time>
      </trkpt>
      <trkpt lat="46.84335" lon="-1.98771">
        <ele>1</ele>
        <time>2018-03-21T02:32:49Z</time>
      </trkpt>
      <trkpt lat="46.84426" lon="-1.98723">
        <ele>1</ele>
        <time>2018-03-21T02:33:49Z</time>
      </trkpt>
      <trkpt lat="46.84445" lon="-1.98704">
        <ele>1</ele>
        <time>2018-03-21T02:34:49Z</time>
      </trkpt>
      <trkpt lat="46.84458" lon="-1.98685">
        <ele>1</ele>
        <time>2018-03-21T02:35:49Z</time>
      </trkpt>
      <trkpt lat="46.8451" lon="-1.98572">
        <ele>2</ele>
        <time>2018-03-21T02:36:49Z</time>
      </trkpt>
      <trkpt lat="46.84545" lon="-1.98489">
        <ele>1</ele>
        <time>2018-03-21T02:37:49Z</time>
      </trkpt>
      <trkpt lat="46.84549" lon="-1.98474">
        <ele>1</ele>
        <time>2018-03-21T02:38:49Z</time>
      </trkpt>
      <trkpt lat="46.84551" lon="-1.98451">
        <ele>1</ele>
        <time>2018-03-21T02:39:49Z</time>
      </trkpt>
      <trkpt lat="46.84552" lon="-1.98391">
        <ele>1</ele>
        <time>2018-03-21T02:40:49Z</time>
      </trkpt>
      <trkpt lat="46.84556" lon="-1.98365">
        <ele>1</ele>
        <time>2018-03-21T02:41:49Z</time>
      </trkpt>
      <trkpt lat="46.84564" lon="-1.98339">
        <ele>2</ele>
        <time>2018-03-21T02:42:49Z</time>
      </trkpt>
      <trkpt lat="46.84598" lon="-1.98268">
        <ele>1</ele>
        <time>2018-03-21T02:43:49Z</time>
      </trkpt>
      <trkpt lat="46.8461" lon="-1.98251">
        <ele>1</ele>
        <time>2018-03-21T02:44:49Z</time>
      </trkpt>
      <trkpt lat="46.84635" lon="-1.98221">
        <ele>1</ele>
        <time>2018-03-21T02:45:49Z</time>
      </trkpt>
      <trkpt lat="46.84641" lon="-1.98209">
        <ele>1</ele>
        <time>2018-03-21T02:46:49Z</time>
      </trkpt>
      <trkpt lat="46.84656" lon="-1.98169">
        <ele>1.4</ele>
        <time>2018-03-21T02:47:49Z</time>
      </trkpt>
      <trkpt lat="46.84665" lon="-1.98148">
        <ele>1.7</ele>
        <time>2018-03-21T02:48:49Z</time>
      </trkpt>
      <trkpt lat="46.84674" lon="-1.98133">
        <ele>1.8</ele>
        <time>2018-03-21T02:49:49Z</time>
      </trkpt>
      <trkpt lat="46.84682" lon="-1.98123">
        <ele>1.8</ele>
        <time>2018-03-21T02:50:49Z</time>
      </trkpt>
      <trkpt lat="46.84719" lon="-1.98099">
        <ele>2</ele>
        <time>2018-03-21T02:51:49Z</time>
      </trkpt>
      <trkpt lat="46.84745" lon="-1.98073">
        <ele>1.7</ele>
        <time>2018-03-21T02:52:49Z</time>
      </trkpt>
      <trkpt lat="46.84776" lon="-1.9803">
        <ele>1.9</ele>
        <time>2018-03-21T02:53:49Z</time>
      </trkpt>
      <trkpt lat="46.84835" lon="-1.97938">
        <ele>2</ele>
        <time>2018-03-21T02:54:49Z</time>
      </trkpt>
      <trkpt lat="46.84948" lon="-1.97777">
        <ele>2</ele>
        <time>2018-03-21T02:55:49Z</time>
      </trkpt>
      <trkpt lat="46.84978" lon="-1.97748">
        <ele>1</ele>
        <time>2018-03-21T02:56:49Z</time>
      </trkpt>
      <trkpt lat="46.85207" lon="-1.97558">
        <ele>1</ele>
        <time>2018-03-21T02:57:49Z</time>
      </trkpt>
      <trkpt lat="46.85224" lon="-1.9754">
        <ele>1</ele>
        <time>2018-03-21T02:58:49Z</time>
      </trkpt>
      <trkpt lat="46.8527" lon="-1.97471">
        <ele>1</ele>
        <time>2018-03-21T02:59:49Z</time>
      </trkpt>
      <trkpt lat="46.85282" lon="-1.97457">
        <ele>1</ele>
        <time>2018-03-21T03:00:49Z</time>
      </trkpt>
      <trkpt lat="46.85294" lon="-1.9745">
        <ele>1</ele>
        <time>2018-03-21T03:01:49Z</time>
      </trkpt>
      <trkpt lat="46.85377" lon="-1.97421">
        <ele>1</ele>
        <time>2018-03-21T03:02:49Z</time>
      </trkpt>
      <trkpt lat="46.85391" lon="-1.97411">
        <ele>1</ele>
        <time>2018-03-21T03:03:49Z</time>
      </trkpt>
      <trkpt lat="46.85416" lon="-1.97386">
        <ele>1</ele>
        <time>2018-03-21T03:04:49Z</time>
      </trkpt>
      <trkpt lat="46.85431" lon="-1.97361">
        <ele>1</ele>
        <time>2018-03-21T03:05:49Z</time>
      </trkpt>
      <trkpt lat="46.85444" lon="-1.97329">
        <ele>1</ele>
        <time>2018-03-21T03:06:49Z</time>
      </trkpt>
      <trkpt lat="46.85481" lon="-1.97205">
        <ele>3</ele>
        <time>2018-03-21T03:07:49Z</time>
      </trkpt>
      <trkpt lat="46.85538" lon="-1.9704">
        <ele>1</ele>
        <time>2018-03-21T03:08:49Z</time>
      </trkpt>
      <trkpt lat="46.8554" lon="-1.97019">
        <ele>1</ele>
        <time>2018-03-21T03:09:49Z</time>
      </trkpt>
      <trkpt lat="46.85539" lon="-1.96997">
        <ele>1</ele>
        <time>2018-03-21T03:10:49Z</time>
      </trkpt>
      <trkpt lat="46.85525" lon="-1.96876">
        <ele>1</ele>
        <time>2018-03-21T03:11:49Z</time>
      </trkpt>
      <trkpt lat="46.85519" lon="-1.9685">
        <ele>2</ele>
        <time>2018-03-21T03:12:49Z</time>
      </trkpt>
      <trkpt lat="46.85505" lon="-1.9681">
        <ele>2</ele>
        <time>2018-03-21T03:13:49Z</time>
      </trkpt>
      <trkpt lat="46.85499" lon="-1.96787">
        <ele>1</ele>
        <time>2018-03-21T03:14:49Z</time>
      </trkpt>
      <trkpt lat="46.85496" lon="-1.9676">
        <ele>1</ele>
        <time>2018-03-21T03:15:49Z</time>
      </trkpt>
      <trkpt lat="46.85495" lon="-1.96733">
        <ele>1</ele>
        <time>2018-03-21T03:16:49Z</time>
      </trkpt>
      <trkpt lat="46.85498" lon="-1.96712">
        <ele>1</ele>
        <time>2018-03-21T03:17:49Z</time>
      </trkpt>
      <trkpt lat="46.85505" lon="-1.9669">
        <ele>2</ele>
        <time>2018-03-21T03:18:49Z</time>
      </trkpt>
      <trkpt lat="46.85542" lon="-1.9658">
        <ele>1.6</ele>
        <time>2018-03-21T03:19:49Z</time>
      </trkpt>
      <trkpt lat="46.85553" lon="-1.96558">
        <ele>2</ele>
        <time>2018-03-21T03:20:49Z</time>
      </trkpt>
      <trkpt lat="46.85563" lon="-1.96545">
        <ele>2</ele>
        <time>2018-03-21T03:21:49Z</time>
      </trkpt>
      <trkpt lat="46.85577" lon="-1.96533">
        <ele>2</ele>
        <time>2018-03-21T03:22:49Z</time>
      </trkpt>
      <trkpt lat="46.85606" lon="-1.96518">
        <ele>1.5</ele>
        <time>2018-03-21T03:23:49Z</time>
      </trkpt>
      <trkpt lat="46.85615" lon="-1.96508">
        <ele>1.7</ele>
        <time>2018-03-21T03:24:49Z</time>
      </trkpt>
      <trkpt lat="46.85622" lon="-1.96489">
        <ele>1.8</ele>
        <time>2018-03-21T03:25:49Z</time>
      </trkpt>
      <trkpt lat="46.85624" lon="-1.96469">
        <ele>1.5</ele>
        <time>2018-03-21T03:26:49Z</time>
      </trkpt>
      <trkpt lat="46.85624" lon="-1.96429">
        <ele>1.5</ele>
        <time>2018-03-21T03:27:49Z</time>
      </trkpt>
      <trkpt lat="46.85626" lon="-1.96412">
        <ele>1.6</ele>
        <time>2018-03-21T03:28:49Z</time>
      </trkpt>
      <trkpt lat="46.85632" lon="-1.96392">
        <ele>1.9</ele>
        <time>2018-03-21T03:29:49Z</time>
      </trkpt>
      <trkpt lat="46.85645" lon="-1.96365">
        <ele>1.8</ele>
        <time>2018-03-21T03:30:49Z</time>
      </trkpt>
      <trkpt lat="46.85669" lon="-1.96332">
        <ele>2</ele>
        <time>2018-03-21T03:31:49Z</time>
      </trkpt>
      <trkpt lat="46.85678" lon="-1.96322">
        <ele>2</ele>
        <time>2018-03-21T03:32:49Z</time>
      </trkpt>
      <trkpt lat="46.85712" lon="-1.96293">
        <ele>1.7</ele>
        <time>2018-03-21T03:33:49Z</time>
      </trkpt>
      <trkpt lat="46.85721" lon="-1.96281">
        <ele>1.9</ele>
        <time>2018-03-21T03:34:49Z</time>
      </trkpt>
      <trkpt lat="46.85751" lon="-1.96202">
        <ele>1</ele>
        <time>2018-03-21T03:35:49Z</time>
      </trkpt>
      <trkpt lat="46.85787" lon="-1.96128">
        <ele>2</ele>
        <time>2018-03-21T03:36:49Z</time>
      </trkpt>
      <trkpt lat="46.85787" lon="-1.96128">
        <ele>2</ele>
        <time>2018-03-21T03:37:49Z</time>
      </trkpt>
      <trkpt lat="46.85835" lon="-1.9603">
        <ele>2</ele>
        <time>2018-03-21T03:38:49Z</time>
      </trkpt>
      <trkpt lat="46.85936" lon="-1.95886">
        <ele>4</ele>
        <time>2018-03-21T03:39:49Z</time>
      </trkpt>
      <trkpt lat="46.85942" lon="-1.95874">
        <ele>4</ele>
        <time>2018-03-21T03:40:49Z</time>
      </trkpt>
      <trkpt lat="46.85958" lon="-1.95859">
        <ele>4</ele>
        <time>2018-03-21T03:41:49Z</time>
      </trkpt>
      <trkpt lat="46.85964" lon="-1.95849">
        <ele>4</ele>
        <time>2018-03-21T03:42:49Z</time>
      </trkpt>
      <trkpt lat="46.8597" lon="-1.95832">
        <ele>4</ele>
        <time>2018-03-21T03:43:49Z</time>
      </trkpt>
      <trkpt lat="46.85994" lon="-1.95782">
        <ele>4</ele>
        <time>2018-03-21T03:44:49Z</time>
      </trkpt>
      <trkpt lat="46.8601" lon="-1.95754">
        <ele>4</ele>
        <time>2018-03-21T03:45:49Z</time>
      </trkpt>
      <trkpt lat="46.86043" lon="-1.95712">
        <ele>4</ele>
        <time>2018-03-21T03:46:49Z</time>
      </trkpt>
      <trkpt lat="46.86056" lon="-1.95688">
        <ele>4</ele>
        <time>2018-03-21T03:47:49Z</time>
      </trkpt>
      <trkpt lat="46.8606" lon="-1.95656">
        <ele>4</ele>
        <time>2018-03-21T03:48:49Z</time>
      </trkpt>
      <trkpt lat="46.8606" lon="-1.95638">
        <ele>4</ele>
        <time>2018-03-21T03:49:49Z</time>
      </trkpt>
      <trkpt lat="46.86047" lon="-1.95517">
        <ele>4</ele>
        <time>2018-03-21T03:50:49Z</time>
      </trkpt>
      <trkpt lat="46.86041" lon="-1.95337">
        <ele>4</ele>
        <time>2018-03-21T03:51:49Z</time>
      </trkpt>
      <trkpt lat="46.8604" lon="-1.9523">
        <ele>5</ele>
        <time>2018-03-21T03:52:49Z</time>
      </trkpt>
      <trkpt lat="46.86044" lon="-1.95177">
        <ele>4</ele>
        <time>2018-03-21T03:53:49Z</time>
      </trkpt>
      <trkpt lat="46.86047" lon="-1.95167">
        <ele>4</ele>
        <time>2018-03-21T03:54:49Z</time>
      </trkpt>
      <trkpt lat="46.86045" lon="-1.9516">
        <ele>4</ele>
        <time>2018-03-21T03:55:49Z</time>
      </trkpt>
      <trkpt lat="46.86046" lon="-1.95156">
        <ele>4</ele>
        <time>2018-03-21T03:56:49Z</time>
      </trkpt>
      <trkpt lat="46.8605" lon="-1.9515">
        <ele>4</ele>
        <time>2018-03-21T03:57:49Z</time>
      </trkpt>
      <trkpt lat="46.86056" lon="-1.95149">
        <ele>4</ele>
        <time>2018-03-21T03:58:49Z</time>
      </trkpt>
      <trkpt lat="46.8606" lon="-1.95154">
        <ele>4</ele>
        <time>2018-03-21T03:59:49Z</time>
      </trkpt>
      <trkpt lat="46.86079" lon="-1.95162">
        <ele>3</ele>
        <time>2018-03-21T04:00:49Z</time>
      </trkpt>
      <trkpt lat="46.8608" lon="-1.95164">
        <ele>3</ele>
        <time>2018-03-21T04:01:49Z</time>
      </trkpt>
      <trkpt lat="46.86094" lon="-1.95163">
        <ele>3</ele>
        <time>2018-03-21T04:02:49Z</time>
      </trkpt>
      <trkpt lat="46.86151" lon="-1.95171">
        <ele>1</ele>
        <time>2018-03-21T04:03:49Z</time>
      </trkpt>
      <trkpt lat="46.86184" lon="-1.95169">
        <ele>1</ele>
        <time>2018-03-21T04:04:49Z</time>
      </trkpt>
      <trkpt lat="46.86352" lon="-1.95146">
        <ele>3</ele>
        <time>2018-03-21T04:05:49Z</time>
      </trkpt>
      <trkpt lat="46.86386" lon="-1.95136">
        <ele>2</ele>
        <time>2018-03-21T04:06:49Z</time>
      </trkpt>
      <trkpt lat="46.86489" lon="-1.95083">
        <ele>3</ele>
        <time>2018-03-21T04:07:49Z</time>
      </trkpt>
      <trkpt lat="46.86495" lon="-1.95075">
        <ele>3</ele>
        <time>2018-03-21T04:08:49Z</time>
      </trkpt>
      <trkpt lat="46.86515" lon="-1.9506">
        <ele>3</ele>
        <time>2018-03-21T04:09:49Z</time>
      </trkpt>
      <trkpt lat="46.8652" lon="-1.95058">
        <ele>3</ele>
        <time>2018-03-21T04:10:49Z</time>
      </trkpt>
      <trkpt lat="46.86524" lon="-1.9505">
        <ele>3</ele>
        <time>2018-03-21T04:11:49Z</time>
      </trkpt>
      <trkpt lat="46.86527" lon="-1.95047">
        <ele>3</ele>
        <time>2018-03-21T04:12:49Z</time>
      </trkpt>
      <trkpt lat="46.86532" lon="-1.95046">
        <ele>3</ele>
        <time>2018-03-21T04:13:49Z</time>
      </trkpt>
      <trkpt lat="46.86537" lon="-1.95049">
        <ele>3</ele>
        <time>2018-03-21T04:14:49Z</time>
      </trkpt>
      <trkpt lat="46.8654" lon="-1.95054">
        <ele>3</ele>
        <time>2018-03-21T04:15:49Z</time>
      </trkpt>
      <trkpt lat="46.86551" lon="-1.95056">
        <ele>3</ele>
        <time>2018-03-21T04:16:49Z</time>
      </trkpt>
      <trkpt lat="46.86579" lon="-1.95057">
        <ele>4</ele>
        <time>2018-03-21T04:17:49Z</time>
      </trkpt>
      <trkpt lat="46.86592" lon="-1.95054">
        <ele>4</ele>
        <time>2018-03-21T04:18:49Z</time>
      </trkpt>
      <trkpt lat="46.86619" lon="-1.95045">
        <ele>4</ele>
        <time>2018-03-21T04:19:49Z</time>
      </trkpt>
      <trkpt lat="46.86724" lon="-1.95001">
        <ele>5</ele>
        <time>2018-03-21T04:20:49Z</time>
      </trkpt>
      <trkpt lat="46.8677" lon="-1.94989">
        <ele>5</ele>
        <time>2018-03-21T04:21:49Z</time>
      </trkpt>
      <trkpt lat="46.8677" lon="-1.94983">
        <ele>5</ele>
        <time>2018-03-21T04:22:49Z</time>
      </trkpt>
      <trkpt lat="46.86775" lon="-1.94975">
        <ele>5</ele>
        <time>2018-03-21T04:23:49Z</time>
      </trkpt>
      <trkpt lat="46.86778" lon="-1.94972">
        <ele>5</ele>
        <time>2018-03-21T04:24:49Z</time>
      </trkpt>
      <trkpt lat="46.86783" lon="-1.94972">
        <ele>5</ele>
        <time>2018-03-21T04:25:49Z</time>
      </trkpt>
      <trkpt lat="46.86787" lon="-1.94975">
        <ele>5</ele>
        <time>2018-03-21T04:26:49Z</time>
      </trkpt>
      <trkpt lat="46.86791" lon="-1.9498">
        <ele>5</ele>
        <time>2018-03-21T04:27:49Z</time>
      </trkpt>
      <trkpt lat="46.86792" lon="-1.94986">
        <ele>5</ele>
        <time>2018-03-21T04:28:49Z</time>
      </trkpt>
      <trkpt lat="46.86817" lon="-1.94985">
        <ele>5</ele>
        <time>2018-03-21T04:29:49Z</time>
      </trkpt>
      <trkpt lat="46.86873" lon="-1.94974">
        <ele>5</ele>
        <time>2018-03-21T04:30:49Z</time>
      </trkpt>
      <trkpt lat="46.87094" lon="-1.94883">
        <ele>8</ele>
        <time>2018-03-21T04:31:49Z</time>
      </trkpt>
      <trkpt lat="46.87147" lon="-1.94856">
        <ele>9</ele>
        <time>2018-03-21T04:32:49Z</time>
      </trkpt>
      <trkpt lat="46.87206" lon="-1.94822">
        <ele>10</ele>
        <time>2018-03-21T04:33:49Z</time>
      </trkpt>
      <trkpt lat="46.87281" lon="-1.94784">
        <ele>11</ele>
        <time>2018-03-21T04:34:49Z</time>
      </trkpt>
      <trkpt lat="46.87443" lon="-1.94696">
        <ele>15</ele>
        <time>2018-03-21T04:35:49Z</time>
      </trkpt>
      <trkpt lat="46.87446" lon="-1.94703">
        <ele>14</ele>
        <time>2018-03-21T04:36:49Z</time>
      </trkpt>
      <trkpt lat="46.87468" lon="-1.94694">
        <ele>15</ele>
        <time>2018-03-21T04:37:49Z</time>
      </trkpt>
      <trkpt lat="46.87539" lon="-1.94681">
        <ele>15</ele>
        <time>2018-03-21T04:38:49Z</time>
      </trkpt>
      <trkpt lat="46.87574" lon="-1.94669">
        <ele>16</ele>
        <time>2018-03-21T04:39:49Z</time>
      </trkpt>
      <trkpt lat="46.87625" lon="-1.94645">
        <ele>15</ele>
        <time>2018-03-21T04:40:49Z</time>
      </trkpt>
      <trkpt lat="46.87662" lon="-1.94631">
        <ele>14</ele>
        <time>2018-03-21T04:41:49Z</time>
      </trkpt>
      <trkpt lat="46.87751" lon="-1.94602">
        <ele>12</ele>
        <time>2018-03-21T04:42:49Z</time>
      </trkpt>
      <trkpt lat="46.87795" lon="-1.94579">
        <ele>12</ele>
        <time>2018-03-21T04:43:49Z</time>
      </trkpt>
      <trkpt lat="46.87851" lon="-1.94539">
        <ele>12</ele>
        <time>2018-03-21T04:44:49Z</time>
      </trkpt>
      <trkpt lat="46.87883" lon="-1.94512">
        <ele>12</ele>
        <time>2018-03-21T04:45:49Z</time>
      </trkpt>
      <trkpt lat="46.87906" lon="-1.94496">
        <ele>12</ele>
        <time>2018-03-21T04:46:49Z</time>
      </trkpt>
      <trkpt lat="46.87999" lon="-1.94441">
        <ele>10</ele>
        <time>2018-03-21T04:47:49Z</time>
      </trkpt>
      <trkpt lat="46.88041" lon="-1.94428">
        <ele>10</ele>
        <time>2018-03-21T04:48:49Z</time>
      </trkpt>
      <trkpt lat="46.88084" lon="-1.94422">
        <ele>9</ele>
        <time>2018-03-21T04:49:49Z</time>
      </trkpt>
      <trkpt lat="46.88105" lon="-1.94421">
        <ele>9</ele>
        <time>2018-03-21T04:50:49Z</time>
      </trkpt>
      <trkpt lat="46.88161" lon="-1.94425">
        <ele>9</ele>
        <time>2018-03-21T04:51:49Z</time>
      </trkpt>
      <trkpt lat="46.88174" lon="-1.94207">
        <ele>11</ele>
        <time>2018-03-21T04:52:49Z</time>
      </trkpt>
      <trkpt lat="46.88174" lon="-1.94207">
        <ele>11</ele>
        <time>2018-03-21T04:53:49Z</time>
      </trkpt>
      <trkpt lat="46.88175" lon="-1.94183">
        <ele>11</ele>
        <time>2018-03-21T04:54:49Z</time>
      </trkpt>
      <trkpt lat="46.88167" lon="-1.93895">
        <ele>11</ele>
        <time>2018-03-21T04:55:49Z</time>
      </trkpt>
      <trkpt lat="46.8816" lon="-1.93842">
        <ele>11</ele>
        <time>2018-03-21T04:56:49Z</time>
      </trkpt>
      <trkpt lat="46.88114" lon="-1.93679">
        <ele>13</ele>
        <time>2018-03-21T04:57:49Z</time>
      </trkpt>
      <trkpt lat="46.8806" lon="-1.93469">
        <ele>12</ele>
        <time>2018-03-21T04:58:49Z</time>
      </trkpt>
      <trkpt lat="46.88028" lon="-1.93375">
        <ele>12</ele>
        <time>2018-03-21T04:59:49Z</time>
      </trkpt>
      <trkpt lat="46.88008" lon="-1.93306">
        <ele>12</ele>
        <time>2018-03-21T05:00:49Z</time>
      </trkpt>
      <trkpt lat="46.88295" lon="-1.93192">
        <ele>15</ele>
        <time>2018-03-21T05:01:49Z</time>
      </trkpt>
      <trkpt lat="46.8838" lon="-1.93146">
        <ele>14</ele>
        <time>2018-03-21T05:02:49Z</time>
      </trkpt>
      <trkpt lat="46.88403" lon="-1.93125">
        <ele>13</ele>
        <time>2018-03-21T05:03:49Z</time>
      </trkpt>
      <trkpt lat="46.88513" lon="-1.93016">
        <ele>14</ele>
        <time>2018-03-21T05:04:49Z</time>
      </trkpt>
      <trkpt lat="46.88563" lon="-1.92981">
        <ele>13</ele>
        <time>2018-03-21T05:05:49Z</time>
      </trkpt>
      <trkpt lat="46.88679" lon="-1.92909">
        <ele>13</ele>
        <time>2018-03-21T05:06:49Z</time>
      </trkpt>
      <trkpt lat="46.8872" lon="-1.9287">
        <ele>13</ele>
        <time>2018-03-21T05:07:49Z</time>
      </trkpt>
      <trkpt lat="46.88886" lon="-1.92681">
        <ele>13</ele>
        <time>2018-03-21T05:08:49Z</time>
      </trkpt>
      <trkpt lat="46.88898" lon="-1.9265">
        <ele>13</ele>
        <time>2018-03-21T05:09:49Z</time>
      </trkpt>
      <trkpt lat="46.88916" lon="-1.92492">
        <ele>11</ele>
        <time>2018-03-21T05:10:49Z</time>
      </trkpt>
      <trkpt lat="46.88929" lon="-1.92429">
        <ele>12</ele>
        <time>2018-03-21T05:11:49Z</time>
      </trkpt>
      <trkpt lat="46.88937" lon="-1.92406">
        <ele>12</ele>
        <time>2018-03-21T05:12:49Z</time>
      </trkpt>
      <trkpt lat="46.88977" lon="-1.92334">
        <ele>13</ele>
        <time>2018-03-21T05:13:49Z</time>
      </trkpt>
      <trkpt lat="46.89222" lon="-1.91903">
        <ele>10</ele>
        <time>2018-03-21T05:14:49Z</time>
      </trkpt>
      <trkpt lat="46.89307" lon="-1.91766">
        <ele>10</ele>
        <time>2018-03-21T05:15:49Z</time>
      </trkpt>
      <trkpt lat="46.8938" lon="-1.91638">
        <ele>10</ele>
        <time>2018-03-21T05:16:49Z</time>
      </trkpt>
      <trkpt lat="46.89405" lon="-1.91625">
        <ele>10</ele>
        <time>2018-03-21T05:17:49Z</time>
      </trkpt>
      <trkpt lat="46.89429" lon="-1.91618">
        <ele>10</ele>
        <time>2018-03-21T05:18:49Z</time>
      </trkpt>
      <trkpt lat="46.89457" lon="-1.91621">
        <ele>10</ele>
        <time>2018-03-21T05:19:49Z</time>
      </trkpt>
      <trkpt lat="46.89736" lon="-1.91682">
        <ele>10</ele>
        <time>2018-03-21T05:20:49Z</time>
      </trkpt>
      <trkpt lat="46.89918" lon="-1.91725">
        <ele>10</ele>
        <time>2018-03-21T05:21:49Z</time>
      </trkpt>
      <trkpt lat="46.89947" lon="-1.9173">
        <ele>11</ele>
        <time>2018-03-21T05:22:49Z</time>
      </trkpt>
      <trkpt lat="46.89965" lon="-1.9173">
        <ele>11</ele>
        <time>2018-03-21T05:23:49Z</time>
      </trkpt>
      <trkpt lat="46.90375" lon="-1.91704">
        <ele>12</ele>
        <time>2018-03-21T05:24:49Z</time>
      </trkpt>
      <trkpt lat="46.9039" lon="-1.91701">
        <ele>12</ele>
        <time>2018-03-21T05:25:49Z</time>
      </trkpt>
      <trkpt lat="46.90421" lon="-1.91689">
        <ele>12</ele>
        <time>2018-03-21T05:26:49Z</time>
      </trkpt>
      <trkpt lat="46.90783" lon="-1.91512">
        <ele>22</ele>
        <time>2018-03-21T05:27:49Z</time>
      </trkpt>
      <trkpt lat="46.90872" lon="-1.91464">
        <ele>22</ele>
        <time>2018-03-21T05:28:49Z</time>
      </trkpt>
      <trkpt lat="46.91164" lon="-1.91318">
        <ele>18</ele>
        <time>2018-03-21T05:29:49Z</time>
      </trkpt>
      <trkpt lat="46.91394" lon="-1.91214">
        <ele>16</ele>
        <time>2018-03-21T05:30:49Z</time>
      </trkpt>
      <trkpt lat="46.91425" lon="-1.91202">
        <ele>16</ele>
        <time>2018-03-21T05:31:49Z</time>
      </trkpt>
      <trkpt lat="46.91469" lon="-1.91191">
        <ele>15</ele>
        <time>2018-03-21T05:32:49Z</time>
      </trkpt>
      <trkpt lat="46.91615" lon="-1.91171">
        <ele>11</ele>
        <time>2018-03-21T05:33:49Z</time>
      </trkpt>
      <trkpt lat="46.91638" lon="-1.91161">
        <ele>11</ele>
        <time>2018-03-21T05:34:49Z</time>
      </trkpt>
      <trkpt lat="46.91662" lon="-1.91147">
        <ele>11</ele>
        <time>2018-03-21T05:35:49Z</time>
      </trkpt>
      <trkpt lat="46.91702" lon="-1.91116">
        <ele>11</ele>
        <time>2018-03-21T05:36:49Z</time>
      </trkpt>
      <trkpt lat="46.91728" lon="-1.91101">
        <ele>10</ele>
        <time>2018-03-21T05:37:49Z</time>
      </trkpt>
      <trkpt lat="46.91735" lon="-1.91158">
        <ele>11</ele>
        <time>2018-03-21T05:38:49Z</time>
      </trkpt>
      <trkpt lat="46.9174" lon="-1.91179">
        <ele>11</ele>
        <time>2018-03-21T05:39:49Z</time>
      </trkpt>
      <trkpt lat="46.91848" lon="-1.91432">
        <ele>8</ele>
        <time>2018-03-21T05:40:49Z</time>
      </trkpt>
      <trkpt lat="46.91894" lon="-1.91588">
        <ele>9</ele>
        <time>2018-03-21T05:41:49Z</time>
      </trkpt>
      <trkpt lat="46.91934" lon="-1.91726">
        <ele>9</ele>
        <time>2018-03-21T05:42:49Z</time>
      </trkpt>
      <trkpt lat="46.9194" lon="-1.91748">
        <ele>9</ele>
        <time>2018-03-21T05:43:49Z</time>
      </trkpt>
      <trkpt lat="46.91944" lon="-1.91774">
        <ele>9</ele>
        <time>2018-03-21T05:44:49Z</time>
      </trkpt>
      <trkpt lat="46.91942" lon="-1.9187">
        <ele>9</ele>
        <time>2018-03-21T05:45:49Z</time>
      </trkpt>
      <trkpt lat="46.9194" lon="-1.91899">
        <ele>9</ele>
        <time>2018-03-21T05:46:49Z</time>
      </trkpt>
      <trkpt lat="46.91914" lon="-1.92043">
        <ele>11</ele>
        <time>2018-03-21T05:47:49Z</time>
      </trkpt>
      <trkpt lat="46.91907" lon="-1.92091">
        <ele>11</ele>
        <time>2018-03-21T05:48:49Z</time>
      </trkpt>
      <trkpt lat="46.91906" lon="-1.92129">
        <ele>11</ele>
        <time>2018-03-21T05:49:49Z</time>
      </trkpt>
      <trkpt lat="46.91914" lon="-1.9222">
        <ele>12</ele>
        <time>2018-03-21T05:50:49Z</time>
      </trkpt>
      <trkpt lat="46.91914" lon="-1.9222">
        <ele>12</ele>
        <time>2018-03-21T05:51:49Z</time>
      </trkpt>
      <trkpt lat="46.91929" lon="-1.92374">
        <ele>10</ele>
        <time>2018-03-21T05:52:49Z</time>
      </trkpt>
      <trkpt lat="46.91936" lon="-1.92464">
        <ele>10</ele>
        <time>2018-03-21T05:53:49Z</time>
      </trkpt>
      <trkpt lat="46.91934" lon="-1.92548">
        <ele>11</ele>
        <time>2018-03-21T05:54:49Z</time>
      </trkpt>
      <trkpt lat="46.91889" lon="-1.92893">
        <ele>14</ele>
        <time>2018-03-21T05:55:49Z</time>
      </trkpt>
      <trkpt lat="46.91852" lon="-1.93155">
        <ele>15</ele>
        <time>2018-03-21T05:56:49Z</time>
      </trkpt>
      <trkpt lat="46.91825" lon="-1.93285">
        <ele>13</ele>
        <time>2018-03-21T05:57:49Z</time>
      </trkpt>
      <trkpt lat="46.91734" lon="-1.93689">
        <ele>19</ele>
        <time>2018-03-21T05:58:49Z</time>
      </trkpt>
      <trkpt lat="46.91724" lon="-1.93738">
        <ele>20</ele>
        <time>2018-03-21T05:59:49Z</time>
      </trkpt>
      <trkpt lat="46.91718" lon="-1.93779">
        <ele>21</ele>
        <time>2018-03-21T06:00:49Z</time>
      </trkpt>
      <trkpt lat="46.91674" lon="-1.94501">
        <ele>24</ele>
        <time>2018-03-21T06:01:49Z</time>
      </trkpt>
      <trkpt lat="46.9167" lon="-1.94551">
        <ele>26</ele>
        <time>2018-03-21T06:02:49Z</time>
      </trkpt>
      <trkpt lat="46.9166" lon="-1.94617">
        <ele>27</ele>
        <time>2018-03-21T06:03:49Z</time>
      </trkpt>
      <trkpt lat="46.91646" lon="-1.9468">
        <ele>26</ele>
        <time>2018-03-21T06:04:49Z</time>
      </trkpt>
      <trkpt lat="46.91303" lon="-1.96">
        <ele>31</ele>
        <time>2018-03-21T06:05:49Z</time>
      </trkpt>
      <trkpt lat="46.91042" lon="-1.9678">
        <ele>31</ele>
        <time>2018-03-21T06:06:49Z</time>
      </trkpt>
      <trkpt lat="46.90952" lon="-1.97053">
        <ele>31</ele>
        <time>2018-03-21T06:07:49Z</time>
      </trkpt>
      <trkpt lat="46.9078" lon="-1.97749">
        <ele>26</ele>
        <time>2018-03-21T06:08:49Z</time>
      </trkpt>
      <trkpt lat="46.90772" lon="-1.97787">
        <ele>27</ele>
        <time>2018-03-21T06:09:49Z</time>
      </trkpt>
      <trkpt lat="46.90768" lon="-1.97821">
        <ele>28</ele>
        <time>2018-03-21T06:10:49Z</time>
      </trkpt>
      <trkpt lat="46.90768" lon="-1.97895">
        <ele>29</ele>
        <time>2018-03-21T06:11:49Z</time>
      </trkpt>
      <trkpt lat="46.90763" lon="-1.98042">
        <ele>30</ele>
        <time>2018-03-21T06:12:49Z</time>
      </trkpt>
      <trkpt lat="46.90757" lon="-1.98077">
        <ele>31</ele>
        <time>2018-03-21T06:13:49Z</time>
      </trkpt>
      <trkpt lat="46.90748" lon="-1.98104">
        <ele>31</ele>
        <time>2018-03-21T06:14:49Z</time>
      </trkpt>
      <trkpt lat="46.90728" lon="-1.98147">
        <ele>30</ele>
        <time>2018-03-21T06:15:49Z</time>
      </trkpt>
      <trkpt lat="46.90701" lon="-1.9819">
        <ele>29</ele>
        <time>2018-03-21T06:16:49Z</time>
      </trkpt>
      <trkpt lat="46.9063" lon="-1.98262">
        <ele>27</ele>
        <time>2018-03-21T06:17:49Z</time>
      </trkpt>
      <trkpt lat="46.90622" lon="-1.98273">
        <ele>27</ele>
        <time>2018-03-21T06:18:49Z</time>
      </trkpt>
      <trkpt lat="46.9061" lon="-1.98302">
        <ele>27</ele>
        <time>2018-03-21T06:19:49Z</time>
      </trkpt>
      <trkpt lat="46.90604" lon="-1.98333">
        <ele>26</ele>
        <time>2018-03-21T06:20:49Z</time>
      </trkpt>
      <trkpt lat="46.90597" lon="-1.98455">
        <ele>24</ele>
        <time>2018-03-21T06:21:49Z</time>
      </trkpt>
      <trkpt lat="46.90584" lon="-1.98538">
        <ele>22</ele>
        <time>2018-03-21T06:22:49Z</time>
      </trkpt>
      <trkpt lat="46.90566" lon="-1.98595">
        <ele>21</ele>
        <time>2018-03-21T06:23:49Z</time>
      </trkpt>
      <trkpt lat="46.90531" lon="-1.98681">
        <ele>21</ele>
        <time>2018-03-21T06:24:49Z</time>
      </trkpt>
      <trkpt lat="46.90528" lon="-1.98711">
        <ele>20</ele>
        <time>2018-03-21T06:25:49Z</time>
      </trkpt>
      <trkpt lat="46.90528" lon="-1.98734">
        <ele>20</ele>
        <time>2018-03-21T06:26:49Z</time>
      </trkpt>
      <trkpt lat="46.90532" lon="-1.98768">
        <ele>20</ele>
        <time>2018-03-21T06:27:49Z</time>
      </trkpt>
      <trkpt lat="46.90535" lon="-1.98784">
        <ele>20</ele>
        <time>2018-03-21T06:28:49Z</time>
      </trkpt>
      <trkpt lat="46.90555" lon="-1.98845">
        <ele>21</ele>
        <time>2018-03-21T06:29:49Z</time>
      </trkpt>
      <trkpt lat="46.90593" lon="-1.98949">
        <ele>23</ele>
        <time>2018-03-21T06:30:49Z</time>
      </trkpt>
      <trkpt lat="46.906" lon="-1.98974">
        <ele>23</ele>
        <time>2018-03-21T06:31:49Z</time>
      </trkpt>
      <trkpt lat="46.90602" lon="-1.98989">
        <ele>23</ele>
        <time>2018-03-21T06:32:49Z</time>
      </trkpt>
      <trkpt lat="46.90601" lon="-1.98994">
        <ele>23</ele>
        <time>2018-03-21T06:33:49Z</time>
      </trkpt>
      <trkpt lat="46.90595" lon="-1.99003">
        <ele>23</ele>
        <time>2018-03-21T06:34:49Z</time>
      </trkpt>
      <trkpt lat="46.90591" lon="-1.99005">
        <ele>23</ele>
        <time>2018-03-21T06:35:49Z</time>
      </trkpt>
      <trkpt lat="46.90472" lon="-1.99062">
        <ele>20</ele>
        <time>2018-03-21T06:36:49Z</time>
      </trkpt>
      <trkpt lat="46.90188" lon="-1.99195">
        <ele>12</ele>
        <time>2018-03-21T06:37:49Z</time>
      </trkpt>
      <trkpt lat="46.90133" lon="-1.99217">
        <ele>11</ele>
        <time>2018-03-21T06:38:49Z</time>
      </trkpt>
      <trkpt lat="46.90164" lon="-1.99618">
        <ele>9</ele>
        <time>2018-03-21T06:39:49Z</time>
      </trkpt>
      <trkpt lat="46.90167" lon="-1.99647">
        <ele>9</ele>
        <time>2018-03-21T06:40:49Z</time>
      </trkpt>
      <trkpt lat="46.90191" lon="-1.99779">
        <ele>8</ele>
        <time>2018-03-21T06:41:49Z</time>
      </trkpt>
      <trkpt lat="46.90201" lon="-1.99816">
        <ele>8</ele>
        <time>2018-03-21T06:42:49Z</time>
      </trkpt>
      <trkpt lat="46.90209" lon="-1.99836">
        <ele>9</ele>
        <time>2018-03-21T06:43:49Z</time>
      </trkpt>
      <trkpt lat="46.90251" lon="-1.99896">
        <ele>10</ele>
        <time>2018-03-21T06:44:49Z</time>
      </trkpt>
      <trkpt lat="46.9026" lon="-1.99919">
        <ele>10</ele>
        <time>2018-03-21T06:45:49Z</time>
      </trkpt>
      <trkpt lat="46.90261" lon="-1.99953">
        <ele>10</ele>
        <time>2018-03-21T06:46:49Z</time>
      </trkpt>
      <trkpt lat="46.90242" lon="-2.00088">
        <ele>7</ele>
        <time>2018-03-21T06:47:49Z</time>
      </trkpt>
      <trkpt lat="46.90174" lon="-2.00099">
        <ele>6</ele>
        <time>2018-03-21T06:48:49Z</time>
      </trkpt>
      <trkpt lat="46.90149" lon="-2.00105">
        <ele>6</ele>
        <time>2018-03-21T06:49:49Z</time>
      </trkpt>
      <trkpt lat="46.9005" lon="-2.00134">
        <ele>4</ele>
        <time>2018-03-21T06:50:49Z</time>
      </trkpt>
      <trkpt lat="46.8996" lon="-2.00164">
        <ele>4</ele>
        <time>2018-03-21T06:51:49Z</time>
      </trkpt>
      <trkpt lat="46.89926" lon="-2.00179">
        <ele>4</ele>
        <time>2018-03-21T06:52:49Z</time>
      </trkpt>
      <trkpt lat="46.89927" lon="-2.00185">
        <ele>4</ele>
        <time>2018-03-21T06:53:49Z</time>
      </trkpt>
      <trkpt lat="46.89926" lon="-2.00195">
        <ele>4</ele>
        <time>2018-03-21T06:54:49Z</time>
      </trkpt>
      <trkpt lat="46.89923" lon="-2.00203">
        <ele>4</ele>
        <time>2018-03-21T06:55:49Z</time>
      </trkpt>
      <trkpt lat="46.89918" lon="-2.00208">
        <ele>4</ele>
        <time>2018-03-21T06:56:49Z</time>
      </trkpt>
      <trkpt lat="46.89912" lon="-2.00211">
        <ele>3</ele>
        <time>2018-03-21T06:57:49Z</time>
      </trkpt>
      <trkpt lat="46.89906" lon="-2.00211">
        <ele>4</ele>
        <time>2018-03-21T06:58:49Z</time>
      </trkpt>
      <trkpt lat="46.899" lon="-2.00207">
        <ele>4</ele>
        <time>2018-03-21T06:59:49Z</time>
      </trkpt>
      <trkpt lat="46.89896" lon="-2.00202">
        <ele>4</ele>
        <time>2018-03-21T07:00:49Z</time>
      </trkpt>
      <trkpt lat="46.89893" lon="-2.00192">
        <ele>4</ele>
        <time>2018-03-21T07:01:49Z</time>
      </trkpt>
      <trkpt lat="46.89629" lon="-2.00309">
        <ele>3</ele>
        <time>2018-03-21T07:02:49Z</time>
      </trkpt>
      <trkpt lat="46.89629" lon="-2.00309">
        <ele>3</ele>
        <time>2018-03-21T07:03:49Z</time>
      </trkpt>
      <trkpt lat="46.89519" lon="-2.00355">
        <ele>3</ele>
        <time>2018-03-21T07:04:49Z</time>
      </trkpt>
      <trkpt lat="46.89199" lon="-2.00549">
        <ele>1</ele>
        <time>2018-03-21T07:05:49Z</time>
      </trkpt>
      <trkpt lat="46.89152" lon="-2.00569">
        <ele>2</ele>
        <time>2018-03-21T07:06:49Z</time>
      </trkpt>
      <trkpt lat="46.89027" lon="-2.00611">
        <ele>2</ele>
        <time>2018-03-21T07:07:49Z</time>
      </trkpt>
      <trkpt lat="46.88642" lon="-2.00735">
        <ele>3</ele>
        <time>2018-03-21T07:08:49Z</time>
      </trkpt>
      <trkpt lat="46.88487" lon="-2.00772">
        <ele>5</ele>
        <time>2018-03-21T07:09:49Z</time>
      </trkpt>
      <trkpt lat="46.88395" lon="-2.00792">
        <ele>4</ele>
        <time>2018-03-21T07:10:49Z</time>
      </trkpt>
      <trkpt lat="46.88368" lon="-2.00795">
        <ele>4</ele>
        <time>2018-03-21T07:11:49Z</time>
      </trkpt>
      <trkpt lat="46.8812" lon="-2.00806">
        <ele>2</ele>
        <time>2018-03-21T07:12:49Z</time>
      </trkpt>
      <trkpt lat="46.88115" lon="-2.00807">
        <ele>2</ele>
        <time>2018-03-21T07:13:49Z</time>
      </trkpt>
      <trkpt lat="46.88109" lon="-2.00813">
        <ele>2</ele>
        <time>2018-03-21T07:14:49Z</time>
      </trkpt>
      <trkpt lat="46.88101" lon="-2.00811">
        <ele>2</ele>
        <time>2018-03-21T07:15:49Z</time>
      </trkpt>
      <trkpt lat="46.88092" lon="-2.00813">
        <ele>1</ele>
        <time>2018-03-21T07:16:49Z</time>
      </trkpt>
      <trkpt lat="46.88055" lon="-2.00824">
        <ele>1</ele>
        <time>2018-03-21T07:17:49Z</time>
      </trkpt>
      <trkpt lat="46.88015" lon="-2.00833">
        <ele>2</ele>
        <time>2018-03-21T07:18:49Z</time>
      </trkpt>
      <trkpt lat="46.87909" lon="-2.00898">
        <ele>2</ele>
        <time>2018-03-21T07:19:49Z</time>
      </trkpt>
      <trkpt lat="46.87869" lon="-2.00917">
        <ele>2</ele>
        <time>2018-03-21T07:20:49Z</time>
      </trkpt>
      <trkpt lat="46.87841" lon="-2.00927">
        <ele>2</ele>
        <time>2018-03-21T07:21:49Z</time>
      </trkpt>
      <trkpt lat="46.87823" lon="-2.0093">
        <ele>2</ele>
        <time>2018-03-21T07:22:49Z</time>
      </trkpt>
      <trkpt lat="46.87784" lon="-2.00932">
        <ele>2</ele>
        <time>2018-03-21T07:23:49Z</time>
      </trkpt>
      <trkpt lat="46.87684" lon="-2.00927">
        <ele>3</ele>
        <time>2018-03-21T07:24:49Z</time>
      </trkpt>
      <trkpt lat="46.87672" lon="-2.0093">
        <ele>3</ele>
        <time>2018-03-21T07:25:49Z</time>
      </trkpt>
      <trkpt lat="46.87671" lon="-2.00934">
        <ele>3</ele>
        <time>2018-03-21T07:26:49Z</time>
      </trkpt>
      <trkpt lat="46.87669" lon="-2.00939">
        <ele>3</ele>
        <time>2018-03-21T07:27:49Z</time>
      </trkpt>
      <trkpt lat="46.87671" lon="-2.00949">
        <ele>3</ele>
        <time>2018-03-21T07:28:49Z</time>
      </trkpt>
      <trkpt lat="46.87662" lon="-2.01056">
        <ele>2</ele>
        <time>2018-03-21T07:29:49Z</time>
      </trkpt>
      <trkpt lat="46.87648" lon="-2.01203">
        <ele>3</ele>
        <time>2018-03-21T07:30:49Z</time>
      </trkpt>
      <trkpt lat="46.87645" lon="-2.01251">
        <ele>3</ele>
        <time>2018-03-21T07:31:49Z</time>
      </trkpt>
      <trkpt lat="46.87646" lon="-2.01276">
        <ele>2</ele>
        <time>2018-03-21T07:32:49Z</time>
      </trkpt>
      <trkpt lat="46.87663" lon="-2.01364">
        <ele>1</ele>
        <time>2018-03-21T07:33:49Z</time>
      </trkpt>
      <trkpt lat="46.8767" lon="-2.01392">
        <ele>1</ele>
        <time>2018-03-21T07:34:49Z</time>
      </trkpt>
      <trkpt lat="46.87682" lon="-2.01467">
        <ele>2</ele>
        <time>2018-03-21T07:35:49Z</time>
      </trkpt>
      <trkpt lat="46.87692" lon="-2.01533">
        <ele>2</ele>
        <time>2018-03-21T07:36:49Z</time>
      </trkpt>
      <trkpt lat="46.87694" lon="-2.01561">
        <ele>2</ele>
        <time>2018-03-21T07:37:49Z</time>
      </trkpt>
      <trkpt lat="46.87694" lon="-2.01598">
        <ele>2</ele>
        <time>2018-03-21T07:38:49Z</time>
      </trkpt>
      <trkpt lat="46.87694" lon="-2.01598">
        <ele>2</ele>
        <time>2018-03-21T07:39:49Z</time>
      </trkpt>
      <trkpt lat="46.87694" lon="-2.01697">
        <ele>2</ele>
        <time>2018-03-21T07:40:49Z</time>
      </trkpt>
      <trkpt lat="46.87696" lon="-2.01729">
        <ele>2</ele>
        <time>2018-03-21T07:41:49Z</time>
      </trkpt>
      <trkpt lat="46.87707" lon="-2.01832">
        <ele>2</ele>
        <time>2018-03-21T07:42:49Z</time>
      </trkpt>
      <trkpt lat="46.87708" lon="-2.01857">
        <ele>2</ele>
        <time>2018-03-21T07:43:49Z</time>
      </trkpt>
      <trkpt lat="46.87695" lon="-2.01996">
        <ele>2</ele>
        <time>2018-03-21T07:44:49Z</time>
      </trkpt>
      <trkpt lat="46.87692" lon="-2.02015">
        <ele>1</ele>
        <time>2018-03-21T07:45:49Z</time>
      </trkpt>
      <trkpt lat="46.87682" lon="-2.02053">
        <ele>1</ele>
        <time>2018-03-21T07:46:49Z</time>
      </trkpt>
      <trkpt lat="46.87647" lon="-2.02174">
        <ele>2.1</ele>
        <time>2018-03-21T07:47:49Z</time>
      </trkpt>
      <trkpt lat="46.87631" lon="-2.02242">
        <ele>1</ele>
        <time>2018-03-21T07:48:49Z</time>
      </trkpt>
      <trkpt lat="46.87608" lon="-2.02406">
        <ele>1.9</ele>
        <time>2018-03-21T07:49:49Z</time>
      </trkpt>
      <trkpt lat="46.87598" lon="-2.02497">
        <ele>1</ele>
        <time>2018-03-21T07:50:49Z</time>
      </trkpt>
      <trkpt lat="46.87591" lon="-2.02539">
        <ele>1</ele>
        <time>2018-03-21T07:51:49Z</time>
      </trkpt>
      <trkpt lat="46.87579" lon="-2.02583">
        <ele>1.8</ele>
        <time>2018-03-21T07:52:49Z</time>
      </trkpt>
      <trkpt lat="46.87561" lon="-2.02617">
        <ele>1</ele>
        <time>2018-03-21T07:53:49Z</time>
      </trkpt>
      <trkpt lat="46.87508" lon="-2.02705">
        <ele>2</ele>
        <time>2018-03-21T07:54:49Z</time>
      </trkpt>
      <trkpt lat="46.87489" lon="-2.02741">
        <ele>2.2</ele>
        <time>2018-03-21T07:55:49Z</time>
      </trkpt>
      <trkpt lat="46.87478" lon="-2.02778">
        <ele>1</ele>
        <time>2018-03-21T07:56:49Z</time>
      </trkpt>
      <trkpt lat="46.87463" lon="-2.02891">
        <ele>1</ele>
        <time>2018-03-21T07:57:49Z</time>
      </trkpt>
      <trkpt lat="46.87448" lon="-2.02975">
        <ele>1</ele>
        <time>2018-03-21T07:58:49Z</time>
      </trkpt>
      <trkpt lat="46.87423" lon="-2.03068">
        <ele>2</ele>
        <time>2018-03-21T07:59:49Z</time>
      </trkpt>
      <trkpt lat="46.87373" lon="-2.03243">
        <ele>2</ele>
        <time>2018-03-21T08:00:49Z</time>
      </trkpt>
      <trkpt lat="46.8736" lon="-2.03278">
        <ele>2</ele>
        <time>2018-03-21T08:01:49Z</time>
      </trkpt>
      <trkpt lat="46.87339" lon="-2.03319">
        <ele>2</ele>
        <time>2018-03-21T08:02:49Z</time>
      </trkpt>
      <trkpt lat="46.87277" lon="-2.03415">
        <ele>1.9</ele>
        <time>2018-03-21T08:03:49Z</time>
      </trkpt>
      <trkpt lat="46.87257" lon="-2.03456">
        <ele>1.6</ele>
        <time>2018-03-21T08:04:49Z</time>
      </trkpt>
      <trkpt lat="46.8725" lon="-2.03503">
        <ele>2</ele>
        <time>2018-03-21T08:05:49Z</time>
      </trkpt>
      <trkpt lat="46.87253" lon="-2.03574">
        <ele>1.7</ele>
        <time>2018-03-21T08:06:49Z</time>
      </trkpt>
      <trkpt lat="46.87259" lon="-2.03616">
        <ele>2</ele>
        <time>2018-03-21T08:07:49Z</time>
      </trkpt>
      <trkpt lat="46.87275" lon="-2.0366">
        <ele>1</ele>
        <time>2018-03-21T08:08:49Z</time>
      </trkpt>
      <trkpt lat="46.87342" lon="-2.03827">
        <ele>2</ele>
        <time>2018-03-21T08:09:49Z</time>
      </trkpt>
      <trkpt lat="46.87351" lon="-2.03859">
        <ele>1.4</ele>
        <time>2018-03-21T08:10:49Z</time>
      </trkpt>
      <trkpt lat="46.87355" lon="-2.03892">
        <ele>2</ele>
        <time>2018-03-21T08:11:49Z</time>
      </trkpt>
      <trkpt lat="46.87359" lon="-2.03998">
        <ele>2</ele>
        <time>2018-03-21T08:12:49Z</time>
      </trkpt>
      <trkpt lat="46.87364" lon="-2.04048">
        <ele>1</ele>
        <time>2018-03-21T08:13:49Z</time>
      </trkpt>
      <trkpt lat="46.87371" lon="-2.04081">
        <ele>1</ele>
        <time>2018-03-21T08:14:49Z</time>
      </trkpt>
      <trkpt lat="46.8738" lon="-2.04112">
        <ele>1</ele>
        <time>2018-03-21T08:15:49Z</time>
      </trkpt>
      <trkpt lat="46.87391" lon="-2.04141">
        <ele>1</ele>
        <time>2018-03-21T08:16:49Z</time>
      </trkpt>
      <trkpt lat="46.87413" lon="-2.04184">
        <ele>1</ele>
        <time>2018-03-21T08:17:49Z</time>
      </trkpt>
      <trkpt lat="46.87419" lon="-2.04199">
        <ele>2</ele>
        <time>2018-03-21T08:18:49Z</time>
      </trkpt>
      <trkpt lat="46.87428" lon="-2.0423">
        <ele>1</ele>
        <time>2018-03-21T08:19:49Z</time>
      </trkpt>
      <trkpt lat="46.87436" lon="-2.04264">
        <ele>1</ele>
        <time>2018-03-21T08:20:49Z</time>
      </trkpt>
      <trkpt lat="46.87444" lon="-2.04322">
        <ele>2</ele>
        <time>2018-03-21T08:21:49Z</time>
      </trkpt>
      <trkpt lat="46.87459" lon="-2.0449">
        <ele>1</ele>
        <time>2018-03-21T08:22:49Z</time>
      </trkpt>
      <trkpt lat="46.87465" lon="-2.04522">
        <ele>1</ele>
        <time>2018-03-21T08:23:49Z</time>
      </trkpt>
      <trkpt lat="46.87493" lon="-2.04616">
        <ele>2</ele>
        <time>2018-03-21T08:24:49Z</time>
      </trkpt>
      <trkpt lat="46.87514" lon="-2.04676">
        <ele>1</ele>
        <time>2018-03-21T08:25:49Z</time>
      </trkpt>
      <trkpt lat="46.87561" lon="-2.04765">
        <ele>1</ele>
        <time>2018-03-21T08:26:49Z</time>
      </trkpt>
      <trkpt lat="46.87567" lon="-2.04794">
        <ele>1</ele>
        <time>2018-03-21T08:27:49Z</time>
      </trkpt>
      <trkpt lat="46.87567" lon="-2.04824">
        <ele>1</ele>
        <time>2018-03-21T08:28:49Z</time>
      </trkpt>
      <trkpt lat="46.87565" lon="-2.04841">
        <ele>1</ele>
        <time>2018-03-21T08:29:49Z</time>
      </trkpt>
      <trkpt lat="46.87552" lon="-2.04907">
        <ele>1</ele>
        <time>2018-03-21T08:30:49Z</time>
      </trkpt>
      <trkpt lat="46.87541" lon="-2.04956">
        <ele>2</ele>
        <time>2018-03-21T08:31:49Z</time>
      </trkpt>
      <trkpt lat="46.87528" lon="-2.04986">
        <ele>2</ele>
        <time>2018-03-21T08:32:49Z</time>
      </trkpt>
      <trkpt lat="46.87488" lon="-2.05045">
        <ele>1</ele>
        <time>2018-03-21T08:33:49Z</time>
      </trkpt>
      <trkpt lat="46.87482" lon="-2.05059">
        <ele>1</ele>
        <time>2018-03-21T08:34:49Z</time>
      </trkpt>
      <trkpt lat="46.87478" lon="-2.05075">
        <ele>1</ele>
        <time>2018-03-21T08:35:49Z</time>
      </trkpt>
      <trkpt lat="46.87475" lon="-2.05108">
        <ele>1</ele>
        <time>2018-03-21T08:36:49Z</time>
      </trkpt>
      <trkpt lat="46.87473" lon="-2.0516">
        <ele>2</ele>
        <time>2018-03-21T08:37:49Z</time>
      </trkpt>
      <trkpt lat="46.8747" lon="-2.05192">
        <ele>2</ele>
        <time>2018-03-21T08:38:49Z</time>
      </trkpt>
      <trkpt lat="46.87464" lon="-2.05296">
        <ele>1</ele>
        <time>2018-03-21T08:39:49Z</time>
      </trkpt>
      <trkpt lat="46.87463" lon="-2.05345">
        <ele>2</ele>
        <time>2018-03-21T08:40:49Z</time>
      </trkpt>
      <trkpt lat="46.87467" lon="-2.05379">
        <ele>2</ele>
        <time>2018-03-21T08:41:49Z</time>
      </trkpt>
      <trkpt lat="46.8748" lon="-2.05423">
        <ele>2</ele>
        <time>2018-03-21T08:42:49Z</time>
      </trkpt>
      <trkpt lat="46.87487" lon="-2.0544">
        <ele>2</ele>
        <time>2018-03-21T08:43:49Z</time>
      </trkpt>
      <trkpt lat="46.87494" lon="-2.05451">
        <ele>2</ele>
        <time>2018-03-21T08:44:49Z</time>
      </trkpt>
      <trkpt lat="46.87512" lon="-2.05473">
        <ele>1</ele>
        <time>2018-03-21T08:45:49Z</time>
      </trkpt>
      <trkpt lat="46.87816" lon="-2.05826">
        <ele>1</ele>
        <time>2018-03-21T08:46:49Z</time>
      </trkpt>
      <trkpt lat="46.8783" lon="-2.05851">
        <ele>1</ele>
        <time>2018-03-21T08:47:49Z</time>
      </trkpt>
      <trkpt lat="46.8783" lon="-2.05856">
        <ele>1</ele>
        <time>2018-03-21T08:48:49Z</time>
      </trkpt>
      <trkpt lat="46.87727" lon="-2.05852">
        <ele>1</ele>
        <time>2018-03-21T08:49:49Z</time>
      </trkpt>
      <trkpt lat="46.87685" lon="-2.05855">
        <ele>2</ele>
        <time>2018-03-21T08:50:49Z</time>
      </trkpt>
      <trkpt lat="46.87414" lon="-2.05916">
        <ele>1</ele>
        <time>2018-03-21T08:51:49Z</time>
      </trkpt>
      <trkpt lat="46.87201" lon="-2.0596">
        <ele>1</ele>
        <time>2018-03-21T08:52:49Z</time>
      </trkpt>
      <trkpt lat="46.87201" lon="-2.0596">
        <ele>1</ele>
        <time>2018-03-21T08:53:49Z</time>
      </trkpt>
      <trkpt lat="46.87141" lon="-2.05973">
        <ele>2.1</ele>
        <time>2018-03-21T08:54:49Z</time>
      </trkpt>
      <trkpt lat="46.87002" lon="-2.05992">
        <ele>2.7</ele>
        <time>2018-03-21T08:55:49Z</time>
      </trkpt>
      <trkpt lat="46.86695" lon="-2.06026">
        <ele>2</ele>
        <time>2018-03-21T08:56:49Z</time>
      </trkpt>
      <trkpt lat="46.86655" lon="-2.06026">
        <ele>2.9</ele>
        <time>2018-03-21T08:57:49Z</time>
      </trkpt>
      <trkpt lat="46.86611" lon="-2.06024">
        <ele>2.9</ele>
        <time>2018-03-21T08:58:49Z</time>
      </trkpt>
      <trkpt lat="46.86365" lon="-2.05987">
        <ele>1</ele>
        <time>2018-03-21T08:59:49Z</time>
      </trkpt>
      <trkpt lat="46.86342" lon="-2.05985">
        <ele>1</ele>
        <time>2018-03-21T09:00:49Z</time>
      </trkpt>
      <trkpt lat="46.8632" lon="-2.05988">
        <ele>1</ele>
        <time>2018-03-21T09:01:49Z</time>
      </trkpt>
      <trkpt lat="46.86296" lon="-2.05995">
        <ele>1</ele>
        <time>2018-03-21T09:02:49Z</time>
      </trkpt>
      <trkpt lat="46.86268" lon="-2.06008">
        <ele>2</ele>
        <time>2018-03-21T09:03:49Z</time>
      </trkpt>
      <trkpt lat="46.86098" lon="-2.06105">
        <ele>1</ele>
        <time>2018-03-21T09:04:49Z</time>
      </trkpt>
      <trkpt lat="46.86064" lon="-2.06112">
        <ele>1</ele>
        <time>2018-03-21T09:05:49Z</time>
      </trkpt>
      <trkpt lat="46.86046" lon="-2.06112">
        <ele>1</ele>
        <time>2018-03-21T09:06:49Z</time>
      </trkpt>
      <trkpt lat="46.85679" lon="-2.06062">
        <ele>2</ele>
        <time>2018-03-21T09:07:49Z</time>
      </trkpt>
      <trkpt lat="46.85648" lon="-2.06055">
        <ele>1</ele>
        <time>2018-03-21T09:08:49Z</time>
      </trkpt>
      <trkpt lat="46.85625" lon="-2.06046">
        <ele>1</ele>
        <time>2018-03-21T09:09:49Z</time>
      </trkpt>
      <trkpt lat="46.85596" lon="-2.06029">
        <ele>1</ele>
        <time>2018-03-21T09:10:49Z</time>
      </trkpt>
      <trkpt lat="46.85503" lon="-2.05966">
        <ele>2</ele>
        <time>2018-03-21T09:11:49Z</time>
      </trkpt>
      <trkpt lat="46.85481" lon="-2.05954">
        <ele>2</ele>
        <time>2018-03-21T09:12:49Z</time>
      </trkpt>
      <trkpt lat="46.85437" lon="-2.05941">
        <ele>1.9</ele>
        <time>2018-03-21T09:13:49Z</time>
      </trkpt>
      <trkpt lat="46.85404" lon="-2.05939">
        <ele>2</ele>
        <time>2018-03-21T09:14:49Z</time>
      </trkpt>
      <trkpt lat="46.85368" lon="-2.05946">
        <ele>1.9</ele>
        <time>2018-03-21T09:15:49Z</time>
      </trkpt>
      <trkpt lat="46.85339" lon="-2.05954">
        <ele>1.4</ele>
        <time>2018-03-21T09:16:49Z</time>
      </trkpt>
      <trkpt lat="46.85312" lon="-2.05965">
        <ele>1.9</ele>
        <time>2018-03-21T09:17:49Z</time>
      </trkpt>
      <trkpt lat="46.85292" lon="-2.05977">
        <ele>2</ele>
        <time>2018-03-21T09:18:49Z</time>
      </trkpt>
      <trkpt lat="46.85266" lon="-2.05999">
        <ele>2</ele>
        <time>2018-03-21T09:19:49Z</time>
      </trkpt>
      <trkpt lat="46.85245" lon="-2.06023">
        <ele>2</ele>
        <time>2018-03-21T09:20:49Z</time>
      </trkpt>
      <trkpt lat="46.85194" lon="-2.06092">
        <ele>2</ele>
        <time>2018-03-21T09:21:49Z</time>
      </trkpt>
      <trkpt lat="46.85165" lon="-2.06121">
        <ele>1</ele>
        <time>2018-03-21T09:22:49Z</time>
      </trkpt>
      <trkpt lat="46.85153" lon="-2.06129">
        <ele>1</ele>
        <time>2018-03-21T09:23:49Z</time>
      </trkpt>
      <trkpt lat="46.85134" lon="-2.0614">
        <ele>1</ele>
        <time>2018-03-21T09:24:49Z</time>
      </trkpt>
      <trkpt lat="46.85103" lon="-2.0615">
        <ele>1</ele>
        <time>2018-03-21T09:25:49Z</time>
      </trkpt>
      <trkpt lat="46.85078" lon="-2.06151">
        <ele>1.9</ele>
        <time>2018-03-21T09:26:49Z</time>
      </trkpt>
      <trkpt lat="46.85052" lon="-2.06147">
        <ele>1.7</ele>
        <time>2018-03-21T09:27:49Z</time>
      </trkpt>
      <trkpt lat="46.8486" lon="-2.061">
        <ele>2.2</ele>
        <time>2018-03-21T09:28:49Z</time>
      </trkpt>
      <trkpt lat="46.84795" lon="-2.06088">
        <ele>1.9</ele>
        <time>2018-03-21T09:29:49Z</time>
      </trkpt>
      <trkpt lat="46.84253" lon="-2.06029">
        <ele>2.9</ele>
        <time>2018-03-21T09:30:49Z</time>
      </trkpt>
      <trkpt lat="46.84216" lon="-2.06026">
        <ele>2</ele>
        <time>2018-03-21T09:31:49Z</time>
      </trkpt>
      <trkpt lat="46.84173" lon="-2.06026">
        <ele>2</ele>
        <time>2018-03-21T09:32:49Z</time>
      </trkpt>
      <trkpt lat="46.84146" lon="-2.06034">
        <ele>2</ele>
        <time>2018-03-21T09:33:49Z</time>
      </trkpt>
      <trkpt lat="46.84128" lon="-2.06042">
        <ele>2</ele>
        <time>2018-03-21T09:34:49Z</time>
      </trkpt>
      <trkpt lat="46.83753" lon="-2.06242">
        <ele>1</ele>
        <time>2018-03-21T09:35:49Z</time>
      </trkpt>
      <trkpt lat="46.8371" lon="-2.06262">
        <ele>1</ele>
        <time>2018-03-21T09:36:49Z</time>
      </trkpt>
      <trkpt lat="46.83683" lon="-2.06269">
        <ele>1</ele>
        <time>2018-03-21T09:37:49Z</time>
      </trkpt>
      <trkpt lat="46.83621" lon="-2.06274">
        <ele>2</ele>
        <time>2018-03-21T09:38:49Z</time>
      </trkpt>
      <trkpt lat="46.83536" lon="-2.06275">
        <ele>1.9</ele>
        <time>2018-03-21T09:39:49Z</time>
      </trkpt>
      <trkpt lat="46.83506" lon="-2.0627">
        <ele>1</ele>
        <time>2018-03-21T09:40:49Z</time>
      </trkpt>
      <trkpt lat="46.83472" lon="-2.06258">
        <ele>2</ele>
        <time>2018-03-21T09:41:49Z</time>
      </trkpt>
      <trkpt lat="46.83189" lon="-2.06129">
        <ele>2.6</ele>
        <time>2018-03-21T09:42:49Z</time>
      </trkpt>
      <trkpt lat="46.83169" lon="-2.06132">
        <ele>2.3</ele>
        <time>2018-03-21T09:43:49Z</time>
      </trkpt>
      <trkpt lat="46.83156" lon="-2.06138">
        <ele>2.4</ele>
        <time>2018-03-21T09:44:49Z</time>
      </trkpt>
      <trkpt lat="46.83149" lon="-2.06145">
        <ele>2.5</ele>
        <time>2018-03-21T09:45:49Z</time>
      </trkpt>
      <trkpt lat="46.83141" lon="-2.06145">
        <ele>2.7</ele>
        <time>2018-03-21T09:46:49Z</time>
      </trkpt>
      <trkpt lat="46.83138" lon="-2.06143">
        <ele>2.8</ele>
        <time>2018-03-21T09:47:49Z</time>
      </trkpt>
      <trkpt lat="46.83133" lon="-2.06134">
        <ele>2.8</ele>
        <time>2018-03-21T09:48:49Z</time>
      </trkpt>
      <trkpt lat="46.83132" lon="-2.06128">
        <ele>2.8</ele>
        <time>2018-03-21T09:49:49Z</time>
      </trkpt>
      <trkpt lat="46.83135" lon="-2.06116">
        <ele>3</ele>
        <time>2018-03-21T09:50:49Z</time>
      </trkpt>
      <trkpt lat="46.83142" lon="-2.06109">
        <ele>2.9</ele>
        <time>2018-03-21T09:51:49Z</time>
      </trkpt>
      <trkpt lat="46.83147" lon="-2.0609">
        <ele>2.2</ele>
        <time>2018-03-21T09:52:49Z</time>
      </trkpt>
      <trkpt lat="46.83157" lon="-2.05871">
        <ele>1</ele>
        <time>2018-03-21T09:53:49Z</time>
      </trkpt>
      <trkpt lat="46.83157" lon="-2.05801">
        <ele>2</ele>
        <time>2018-03-21T09:54:49Z</time>
      </trkpt>
      <trkpt lat="46.83139" lon="-2.05364">
        <ele>2</ele>
        <time>2018-03-21T09:55:49Z</time>
      </trkpt>
      <trkpt lat="46.83135" lon="-2.05325">
        <ele>1.9</ele>
        <time>2018-03-21T09:56:49Z</time>
      </trkpt>
      <trkpt lat="46.83125" lon="-2.05289">
        <ele>2</ele>
        <time>2018-03-21T09:57:49Z</time>
      </trkpt>
      <trkpt lat="46.83121" lon="-2.05278">
        <ele>2</ele>
        <time>2018-03-21T09:58:49Z</time>
      </trkpt>
      <trkpt lat="46.83071" lon="-2.05179">
        <ele>1.8</ele>
        <time>2018-03-21T09:59:49Z</time>
      </trkpt>
      <trkpt lat="46.83051" lon="-2.0513">
        <ele>1</ele>
        <time>2018-03-21T10:00:49Z</time>
      </trkpt>
      <trkpt lat="46.83042" lon="-2.05101">
        <ele>1</ele>
        <time>2018-03-21T10:01:49Z</time>
      </trkpt>
      <trkpt lat="46.82931" lon="-2.04663">
        <ele>2</ele>
        <time>2018-03-21T10:02:49Z</time>
      </trkpt>
      <trkpt lat="46.8292" lon="-2.04622">
        <ele>1</ele>
        <time>2018-03-21T10:03:49Z</time>
      </trkpt>
      <trkpt lat="46.82887" lon="-2.04514">
        <ele>1</ele>
        <time>2018-03-21T10:04:49Z</time>
      </trkpt>
      <trkpt lat="46.82879" lon="-2.04482">
        <ele>1</ele>
        <time>2018-03-21T10:05:49Z</time>
      </trkpt>
      <trkpt lat="46.82868" lon="-2.04422">
        <ele>1</ele>
        <time>2018-03-21T10:06:49Z</time>
      </trkpt>
      <trkpt lat="46.82838" lon="-2.04219">
        <ele>1</ele>
        <time>2018-03-21T10:07:49Z</time>
      </trkpt>
      <trkpt lat="46.82832" lon="-2.04174">
        <ele>1</ele>
        <time>2018-03-21T10:08:49Z</time>
      </trkpt>
      <trkpt lat="46.82831" lon="-2.04151">
        <ele>1</ele>
        <time>2018-03-21T10:09:49Z</time>
      </trkpt>
      <trkpt lat="46.82833" lon="-2.04016">
        <ele>1</ele>
        <time>2018-03-21T10:10:49Z</time>
      </trkpt>
      <trkpt lat="46.82831" lon="-2.03983">
        <ele>1</ele>
        <time>2018-03-21T10:11:49Z</time>
      </trkpt>
      <trkpt lat="46.82811" lon="-2.0385">
        <ele>2</ele>
        <time>2018-03-21T10:12:49Z</time>
      </trkpt>
      <trkpt lat="46.82803" lon="-2.03818">
        <ele>2</ele>
        <time>2018-03-21T10:13:49Z</time>
      </trkpt>
      <trkpt lat="46.82698" lon="-2.03545">
        <ele>2</ele>
        <time>2018-03-21T10:14:49Z</time>
      </trkpt>
      <trkpt lat="46.82616" lon="-2.03348">
        <ele>2</ele>
        <time>2018-03-21T10:15:49Z</time>
      </trkpt>
      <trkpt lat="46.82616" lon="-2.03348">
        <ele>2</ele>
        <time>2018-03-21T10:16:49Z</time>
      </trkpt>
      <trkpt lat="46.82566" lon="-2.03231">
        <ele>1.9</ele>
        <time>2018-03-21T10:17:49Z</time>
      </trkpt>
      <trkpt lat="46.82551" lon="-2.03179">
        <ele>1</ele>
        <time>2018-03-21T10:18:49Z</time>
      </trkpt>
      <trkpt lat="46.8254" lon="-2.03117">
        <ele>1</ele>
        <time>2018-03-21T10:19:49Z</time>
      </trkpt>
      <trkpt lat="46.82504" lon="-2.02798">
        <ele>1</ele>
        <time>2018-03-21T10:20:49Z</time>
      </trkpt>
      <trkpt lat="46.82502" lon="-2.02775">
        <ele>1</ele>
        <time>2018-03-21T10:21:49Z</time>
      </trkpt>
      <trkpt lat="46.82503" lon="-2.02755">
        <ele>1</ele>
        <time>2018-03-21T10:22:49Z</time>
      </trkpt>
      <trkpt lat="46.82516" lon="-2.02668">
        <ele>2</ele>
        <time>2018-03-21T10:23:49Z</time>
      </trkpt>
      <trkpt lat="46.82537" lon="-2.02556">
        <ele>1</ele>
        <time>2018-03-21T10:24:49Z</time>
      </trkpt>
      <trkpt lat="46.82544" lon="-2.02498">
        <ele>2</ele>
        <time>2018-03-21T10:25:49Z</time>
      </trkpt>
      <trkpt lat="46.82541" lon="-2.02439">
        <ele>2</ele>
        <time>2018-03-21T10:26:49Z</time>
      </trkpt>
      <trkpt lat="46.82526" lon="-2.0231">
        <ele>2</ele>
        <time>2018-03-21T10:27:49Z</time>
      </trkpt>
      <trkpt lat="46.82514" lon="-2.02235">
        <ele>1</ele>
        <time>2018-03-21T10:28:49Z</time>
      </trkpt>
      <trkpt lat="46.82492" lon="-2.02144">
        <ele>2</ele>
        <time>2018-03-21T10:29:49Z</time>
      </trkpt>
      <trkpt lat="46.82462" lon="-2.02038">
        <ele>2</ele>
        <time>2018-03-21T10:30:49Z</time>
      </trkpt>
      <trkpt lat="46.82442" lon="-2.02003">
        <ele>2</ele>
        <time>2018-03-21T10:31:49Z</time>
      </trkpt>
      <trkpt lat="46.82411" lon="-2.01962">
        <ele>1</ele>
        <time>2018-03-21T10:32:49Z</time>
      </trkpt>
      <trkpt lat="46.82299" lon="-2.0183">
        <ele>1</ele>
        <time>2018-03-21T10:33:49Z</time>
      </trkpt>
      <trkpt lat="46.82291" lon="-2.01815">
        <ele>1</ele>
        <time>2018-03-21T10:34:49Z</time>
      </trkpt>
      <trkpt lat="46.82286" lon="-2.01792">
        <ele>1</ele>
        <time>2018-03-21T10:35:49Z</time>
      </trkpt>
      <trkpt lat="46.8228" lon="-2.01734">
        <ele>2</ele>
        <time>2018-03-21T10:36:49Z</time>
      </trkpt>
      <trkpt lat="46.82278" lon="-2.01676">
        <ele>2</ele>
        <time>2018-03-21T10:37:49Z</time>
      </trkpt>
      <trkpt lat="46.82286" lon="-2.01617">
        <ele>2</ele>
        <time>2018-03-21T10:38:49Z</time>
      </trkpt>
      <trkpt lat="46.82314" lon="-2.0144">
        <ele>1</ele>
        <time>2018-03-21T10:39:49Z</time>
      </trkpt>
      <trkpt lat="46.82321" lon="-2.01385">
        <ele>1.9</ele>
        <time>2018-03-21T10:40:49Z</time>
      </trkpt>
      <trkpt lat="46.82442" lon="-1.99801">
        <ele>1</ele>
        <time>2018-03-21T10:41:49Z</time>
      </trkpt>
      <trkpt lat="46.82441" lon="-1.99766">
        <ele>1</ele>
        <time>2018-03-21T10:42:49Z</time>
      </trkpt>
      <trkpt lat="46.82429" lon="-1.9967">
        <ele>2</ele>
        <time>2018-03-21T10:43:49Z</time>
      </trkpt>
      <trkpt lat="46.82425" lon="-1.99588">
        <ele>2</ele>
        <time>2018-03-21T10:44:49Z</time>
      </trkpt>
      <trkpt lat="46.82421" lon="-1.99576">
        <ele>2</ele>
        <time>2018-03-21T10:45:49Z</time>
      </trkpt>
      <trkpt lat="46.82417" lon="-1.99573">
        <ele>2</ele>
        <time>2018-03-21T10:46:49Z</time>
      </trkpt>
      <trkpt lat="46.82315" lon="-1.99518">
        <ele>2</ele>
        <time>2018-03-21T10:47:49Z</time>
      </trkpt>
      <trkpt lat="46.8225" lon="-1.99473">
        <ele>2</ele>
        <time>2018-03-21T10:48:49Z</time>
      </trkpt>
      <trkpt lat="46.82181" lon="-1.99421">
        <ele>1</ele>
        <time>2018-03-21T10:49:49Z</time>
      </trkpt>
      <trkpt lat="46.82144" lon="-1.99398">
        <ele>1</ele>
        <time>2018-03-21T10:50:49Z</time>
      </trkpt>
      <trkpt lat="46.82128" lon="-1.99386">
        <ele>1</ele>
        <time>2018-03-21T10:51:49Z</time>
      </trkpt>
      <trkpt lat="46.82113" lon="-1.99377">
        <ele>1</ele>
        <time>2018-03-21T10:52:49Z</time>
      </trkpt>
      <trkpt lat="46.82058" lon="-1.99359">
        <ele>1</ele>
        <time>2018-03-21T10:53:49Z</time>
      </trkpt>
      <trkpt lat="46.82058" lon="-1.99359">
        <ele>1</ele>
        <time>2018-03-21T10:54:49Z</time>
      </trkpt>
      <trkpt lat="46.82" lon="-1.99339">
        <ele>2</ele>
        <time>2018-03-21T10:55:49Z</time>
      </trkpt>
      <trkpt lat="46.81927" lon="-1.99305">
        <ele>2</ele>
        <time>2018-03-21T10:56:49Z</time>
      </trkpt>
      <trkpt lat="46.8191" lon="-1.99308">
        <ele>2</ele>
        <time>2018-03-21T10:57:49Z</time>
      </trkpt>
      <trkpt lat="46.81904" lon="-1.99311">
        <ele>2</ele>
        <time>2018-03-21T10:58:49Z</time>
      </trkpt>
      <trkpt lat="46.81896" lon="-1.99306">
        <ele>2</ele>
        <time>2018-03-21T10:59:49Z</time>
      </trkpt>
      <trkpt lat="46.81894" lon="-1.993">
        <ele>2</ele>
        <time>2018-03-21T11:00:49Z</time>
      </trkpt>
      <trkpt lat="46.81885" lon="-1.99291">
        <ele>2</ele>
        <time>2018-03-21T11:01:49Z</time>
      </trkpt>
      <trkpt lat="46.81867" lon="-1.99279">
        <ele>2</ele>
        <time>2018-03-21T11:02:49Z</time>
      </trkpt>
      <trkpt lat="46.81859" lon="-1.99276">
        <ele>2</ele>
        <time>2018-03-21T11:03:49Z</time>
      </trkpt>
      <trkpt lat="46.81714" lon="-1.9924">
        <ele>1</ele>
        <time>2018-03-21T11:04:49Z</time>
      </trkpt>
      <trkpt lat="46.81657" lon="-1.99222">
        <ele>2</ele>
        <time>2018-03-21T11:05:49Z</time>
      </trkpt>
      <trkpt lat="46.81621" lon="-1.99202">
        <ele>2</ele>
        <time>2018-03-21T11:06:49Z</time>
      </trkpt>
      <trkpt lat="46.81591" lon="-1.99177">
        <ele>1</ele>
        <time>2018-03-21T11:07:49Z</time>
      </trkpt>
      <trkpt lat="46.81529" lon="-1.99117">
        <ele>2</ele>
        <time>2018-03-21T11:08:49Z</time>
      </trkpt>
      <trkpt lat="46.81242" lon="-1.98831">
        <ele>1.7</ele>
        <time>2018-03-21T11:09:49Z</time>
      </trkpt>
      <trkpt lat="46.81213" lon="-1.98818">
        <ele>1.3</ele>
        <time>2018-03-21T11:10:49Z</time>
      </trkpt>
      <trkpt lat="46.81194" lon="-1.98817">
        <ele>2</ele>
        <time>2018-03-21T11:11:49Z</time>
      </trkpt>
      <trkpt lat="46.81183" lon="-1.98825">
        <ele>2</ele>
        <time>2018-03-21T11:12:49Z</time>
      </trkpt>
      <trkpt lat="46.81162" lon="-1.98849">
        <ele>1</ele>
        <time>2018-03-21T11:13:49Z</time>
      </trkpt>
      <trkpt lat="46.81146" lon="-1.98879">
        <ele>1</ele>
        <time>2018-03-21T11:14:49Z</time>
      </trkpt>
      <trkpt lat="46.81118" lon="-1.98914">
        <ele>1</ele>
        <time>2018-03-21T11:15:49Z</time>
      </trkpt>
      <trkpt lat="46.81101" lon="-1.98919">
        <ele>1</ele>
        <time>2018-03-21T11:16:49Z</time>
      </trkpt>
      <trkpt lat="46.81082" lon="-1.98919">
        <ele>1</ele>
        <time>2018-03-21T11:17:49Z</time>
      </trkpt>
      <trkpt lat="46.81054" lon="-1.9891">
        <ele>1</ele>
        <time>2018-03-21T11:18:49Z</time>
      </trkpt>
      <trkpt lat="46.80837" lon="-1.98733">
        <ele>2</ele>
        <time>2018-03-21T11:19:49Z</time>
      </trkpt>
      <trkpt lat="46.808" lon="-1.98697">
        <ele>1.9</ele>
        <time>2018-03-21T11:20:49Z</time>
      </trkpt>
      <trkpt lat="46.80524" lon="-1.98402">
        <ele>2.1</ele>
        <time>2018-03-21T11:21:49Z</time>
      </trkpt>
      <trkpt lat="46.80483" lon="-1.98369">
        <ele>1</ele>
        <time>2018-03-21T11:22:49Z</time>
      </trkpt>
      <trkpt lat="46.80469" lon="-1.98373">
        <ele>1</ele>
        <time>2018-03-21T11:23:49Z</time>
      </trkpt>
      <trkpt lat="46.80458" lon="-1.98367">
        <ele>1</ele>
        <time>2018-03-21T11:24:49Z</time>
      </trkpt>
      <trkpt lat="46.80452" lon="-1.98355">
        <ele>1</ele>
        <time>2018-03-21T11:25:49Z</time>
      </trkpt>
      <trkpt lat="46.80453" lon="-1.98336">
        <ele>1</ele>
        <time>2018-03-21T11:26:49Z</time>
      </trkpt>
      <trkpt lat="46.80434" lon="-1.98303">
        <ele>1</ele>
        <time>2018-03-21T11:27:49Z</time>
      </trkpt>
      <trkpt lat="46.80372" lon="-1.98228">
        <ele>2</ele>
        <time>2018-03-21T11:28:49Z</time>
      </trkpt>
      <trkpt lat="46.80281" lon="-1.98126">
        <ele>2</ele>
        <time>2018-03-21T11:29:49Z</time>
      </trkpt>
      <trkpt lat="46.80254" lon="-1.98102">
        <ele>2</ele>
        <time>2018-03-21T11:30:49Z</time>
      </trkpt>
      <trkpt lat="46.80223" lon="-1.98085">
        <ele>2</ele>
        <time>2018-03-21T11:31:49Z</time>
      </trkpt>
      <trkpt lat="46.80112" lon="-1.98041">
        <ele>2</ele>
        <time>2018-03-21T11:32:49Z</time>
      </trkpt>
      <trkpt lat="46.80042" lon="-1.98009">
        <ele>2.3</ele>
        <time>2018-03-21T11:33:49Z</time>
      </trkpt>
      <trkpt lat="46.8001" lon="-1.97983">
        <ele>2.1</ele>
        <time>2018-03-21T11:34:49Z</time>
      </trkpt>
      <trkpt lat="46.79949" lon="-1.97912">
        <ele>2</ele>
        <time>2018-03-21T11:35:49Z</time>
      </trkpt>
      <trkpt lat="46.79917" lon="-1.9788">
        <ele>2</ele>
        <time>2018-03-21T11:36:49Z</time>
      </trkpt>
      <trkpt lat="46.79877" lon="-1.97852">
        <ele>2</ele>
        <time>2018-03-21T11:37:49Z</time>
      </trkpt>
      <trkpt lat="46.79838" lon="-1.97831">
        <ele>2</ele>
        <time>2018-03-21T11:38:49Z</time>
      </trkpt>
      <trkpt lat="46.798" lon="-1.9782">
        <ele>2</ele>
        <time>2018-03-21T11:39:49Z</time>
      </trkpt>
      <trkpt lat="46.79763" lon="-1.97823">
        <ele>1</ele>
        <time>2018-03-21T11:40:49Z</time>
      </trkpt>
      <trkpt lat="46.79716" lon="-1.97838">
        <ele>1</ele>
        <time>2018-03-21T11:41:49Z</time>
      </trkpt>
      <trkpt lat="46.79596" lon="-1.97889">
        <ele>2</ele>
        <time>2018-03-21T11:42:49Z</time>
      </trkpt>
      <trkpt lat="46.7955" lon="-1.97899">
        <ele>1.9</ele>
        <time>2018-03-21T11:43:49Z</time>
      </trkpt>
      <trkpt lat="46.79506" lon="-1.97906">
        <ele>1.9</ele>
        <time>2018-03-21T11:44:49Z</time>
      </trkpt>
      <trkpt lat="46.79341" lon="-1.97926">
        <ele>1</ele>
        <time>2018-03-21T11:45:49Z</time>
      </trkpt>
      <trkpt lat="46.79308" lon="-1.97928">
        <ele>1</ele>
        <time>2018-03-21T11:46:49Z</time>
      </trkpt>
      <trkpt lat="46.79275" lon="-1.97915">
        <ele>1</ele>
        <time>2018-03-21T11:47:49Z</time>
      </trkpt>
      <trkpt lat="46.79249" lon="-1.97883">
        <ele>1</ele>
        <time>2018-03-21T11:48:49Z</time>
      </trkpt>
      <trkpt lat="46.79208" lon="-1.97803">
        <ele>1</ele>
        <time>2018-03-21T11:49:49Z</time>
      </trkpt>
      <trkpt lat="46.79162" lon="-1.97707">
        <ele>2</ele>
        <time>2018-03-21T11:50:49Z</time>
      </trkpt>
      <trkpt lat="46.79126" lon="-1.97642">
        <ele>1.9</ele>
        <time>2018-03-21T11:51:49Z</time>
      </trkpt>
      <trkpt lat="46.79079" lon="-1.97562">
        <ele>1</ele>
        <time>2018-03-21T11:52:49Z</time>
      </trkpt>
      <trkpt lat="46.7905" lon="-1.97507">
        <ele>1</ele>
        <time>2018-03-21T11:53:49Z</time>
      </trkpt>
      <trkpt lat="46.79024" lon="-1.97468">
        <ele>1</ele>
        <time>2018-03-21T11:54:49Z</time>
      </trkpt>
      <trkpt lat="46.78993" lon="-1.97435">
        <ele>2</ele>
        <time>2018-03-21T11:55:49Z</time>
      </trkpt>
      <trkpt lat="46.78956" lon="-1.97409">
        <ele>2</ele>
        <time>2018-03-21T11:56:49Z</time>
      </trkpt>
      <trkpt lat="46.78861" lon="-1.9737">
        <ele>4</ele>
        <time>2018-03-21T11:57:49Z</time>
      </trkpt>
      <trkpt lat="46.7853" lon="-1.97246">
        <ele>5</ele>
        <time>2018-03-21T11:58:49Z</time>
      </trkpt>
      <trkpt lat="46.78486" lon="-1.97229">
        <ele>4</ele>
        <time>2018-03-21T11:59:49Z</time>
      </trkpt>
      <trkpt lat="46.78429" lon="-1.97203">
        <ele>5</ele>
        <time>2018-03-21T12:00:49Z</time>
      </trkpt>
      <trkpt lat="46.78399" lon="-1.97188">
        <ele>5</ele>
        <time>2018-03-21T12:01:49Z</time>
      </trkpt>
      <trkpt lat="46.78223" lon="-1.97089">
        <ele>3</ele>
        <time>2018-03-21T12:02:49Z</time>
      </trkpt>
      <trkpt lat="46.77947" lon="-1.96937">
        <ele>3</ele>
        <time>2018-03-21T12:03:49Z</time>
      </trkpt>
      <trkpt lat="46.77912" lon="-1.9692">
        <ele>3</ele>
        <time>2018-03-21T12:04:49Z</time>
      </trkpt>
      <trkpt lat="46.7779" lon="-1.96871">
        <ele>4</ele>
        <time>2018-03-21T12:05:49Z</time>
      </trkpt>
      <trkpt lat="46.77751" lon="-1.9685">
        <ele>4</ele>
        <time>2018-03-21T12:06:49Z</time>
      </trkpt>
      <trkpt lat="46.77713" lon="-1.96822">
        <ele>3</ele>
        <time>2018-03-21T12:07:49Z</time>
      </trkpt>
      <trkpt lat="46.7766" lon="-1.96774">
        <ele>3</ele>
        <time>2018-03-21T12:08:49Z</time>
      </trkpt>
      <trkpt lat="46.77479" lon="-1.966">
        <ele>6</ele>
        <time>2018-03-21T12:09:49Z</time>
      </trkpt>
      <trkpt lat="46.77305" lon="-1.96427">
        <ele>5</ele>
        <time>2018-03-21T12:10:49Z</time>
      </trkpt>
      <trkpt lat="46.77223" lon="-1.96351">
        <ele>5</ele>
        <time>2018-03-21T12:11:49Z</time>
      </trkpt>
      <trkpt lat="46.77192" lon="-1.96329">
        <ele>6</ele>
        <time>2018-03-21T12:12:49Z</time>
      </trkpt>
      <trkpt lat="46.77176" lon="-1.96323">
        <ele>6</ele>
        <time>2018-03-21T12:13:49Z</time>
      </trkpt>
      <trkpt lat="46.77174" lon="-1.9633">
        <ele>7</ele>
        <time>2018-03-21T12:14:49Z</time>
      </trkpt>
      <trkpt lat="46.77165" lon="-1.96334">
        <ele>7</ele>
        <time>2018-03-21T12:15:49Z</time>
      </trkpt>
      <trkpt lat="46.77156" lon="-1.96328">
        <ele>7</ele>
        <time>2018-03-21T12:16:49Z</time>
      </trkpt>
      <trkpt lat="46.77153" lon="-1.96315">
        <ele>6</ele>
        <time>2018-03-21T12:17:49Z</time>
      </trkpt>
      <trkpt lat="46.7714" lon="-1.96312">
        <ele>6</ele>
        <time>2018-03-21T12:18:49Z</time>
      </trkpt>
      <trkpt lat="46.77129" lon="-1.96306">
        <ele>6</ele>
        <time>2018-03-21T12:19:49Z</time>
      </trkpt>
      <trkpt lat="46.77099" lon="-1.96301">
        <ele>6</ele>
        <time>2018-03-21T12:20:49Z</time>
      </trkpt>
      <trkpt lat="46.76892" lon="-1.96275">
        <ele>4</ele>
        <time>2018-03-21T12:21:49Z</time>
      </trkpt>
      <trkpt lat="46.76809" lon="-1.96258">
        <ele>3</ele>
        <time>2018-03-21T12:22:49Z</time>
      </trkpt>
      <trkpt lat="46.76682" lon="-1.96215">
        <ele>3</ele>
        <time>2018-03-21T12:23:49Z</time>
      </trkpt>
      <trkpt lat="46.76516" lon="-1.96155">
        <ele>3</ele>
        <time>2018-03-21T12:24:49Z</time>
      </trkpt>
      <trkpt lat="46.76504" lon="-1.96188">
        <ele>2</ele>
        <time>2018-03-21T12:25:49Z</time>
      </trkpt>
      <trkpt lat="46.76476" lon="-1.96318">
        <ele>1</ele>
        <time>2018-03-21T12:26:49Z</time>
      </trkpt>
      <trkpt lat="46.76442" lon="-1.96462">
        <ele>1</ele>
        <time>2018-03-21T12:27:49Z</time>
      </trkpt>
      <trkpt lat="46.76442" lon="-1.96462">
        <ele>1</ele>
        <time>2018-03-21T12:28:49Z</time>
      </trkpt>
      <trkpt lat="46.76428" lon="-1.9653">
        <ele>2</ele>
        <time>2018-03-21T12:29:49Z</time>
      </trkpt>
      <trkpt lat="46.7641" lon="-1.96566">
        <ele>2</ele>
        <time>2018-03-21T12:30:49Z</time>
      </trkpt>
      <trkpt lat="46.76388" lon="-1.96582">
        <ele>2</ele>
        <time>2018-03-21T12:31:49Z</time>
      </trkpt>
      <trkpt lat="46.76365" lon="-1.96595">
        <ele>2</ele>
        <time>2018-03-21T12:32:49Z</time>
      </trkpt>
      <trkpt lat="46.7634" lon="-1.96601">
        <ele>2</ele>
        <time>2018-03-21T12:33:49Z</time>
      </trkpt>
      <trkpt lat="46.7632" lon="-1.96599">
        <ele>2</ele>
        <time>2018-03-21T12:34:49Z</time>
      </trkpt>
      <trkpt lat="46.76304" lon="-1.96589">
        <ele>2</ele>
        <time>2018-03-21T12:35:49Z</time>
      </trkpt>
      <trkpt lat="46.76232" lon="-1.96541">
        <ele>2</ele>
        <time>2018-03-21T12:36:49Z</time>
      </trkpt>
      <trkpt lat="46.76211" lon="-1.96537">
        <ele>2</ele>
        <time>2018-03-21T12:37:49Z</time>
      </trkpt>
      <trkpt lat="46.76184" lon="-1.96537">
        <ele>2</ele>
        <time>2018-03-21T12:38:49Z</time>
      </trkpt>
      <trkpt lat="46.76165" lon="-1.96543">
        <ele>1</ele>
        <time>2018-03-21T12:39:49Z</time>
      </trkpt>
      <trkpt lat="46.76158" lon="-1.96549">
        <ele>1</ele>
        <time>2018-03-21T12:40:49Z</time>
      </trkpt>
      <trkpt lat="46.76144" lon="-1.96564">
        <ele>1</ele>
        <time>2018-03-21T12:41:49Z</time>
      </trkpt>
      <trkpt lat="46.76127" lon="-1.96592">
        <ele>1</ele>
        <time>2018-03-21T12:42:49Z</time>
      </trkpt>
      <trkpt lat="46.76115" lon="-1.96605">
        <ele>1</ele>
        <time>2018-03-21T12:43:49Z</time>
      </trkpt>
      <trkpt lat="46.76104" lon="-1.96609">
        <ele>1</ele>
        <time>2018-03-21T12:44:49Z</time>
      </trkpt>
      <trkpt lat="46.76087" lon="-1.96612">
        <ele>1</ele>
        <time>2018-03-21T12:45:49Z</time>
      </trkpt>
      <trkpt lat="46.76041" lon="-1.96608">
        <ele>1</ele>
        <time>2018-03-21T12:46:49Z</time>
      </trkpt>
      <trkpt lat="46.75946" lon="-1.96587">
        <ele>1</ele>
        <time>2018-03-21T12:47:49Z</time>
      </trkpt>
      <trkpt lat="46.75929" lon="-1.96585">
        <ele>1</ele>
        <time>2018-03-21T12:48:49Z</time>
      </trkpt>
      <trkpt lat="46.75857" lon="-1.96585">
        <ele>2.7</ele>
        <time>2018-03-21T12:49:49Z</time>
      </trkpt>
      <trkpt lat="46.75782" lon="-1.96589">
        <ele>1.8</ele>
        <time>2018-03-21T12:50:49Z</time>
      </trkpt>
      <trkpt lat="46.75751" lon="-1.96601">
        <ele>2</ele>
        <time>2018-03-21T12:51:49Z</time>
      </trkpt>
      <trkpt lat="46.75718" lon="-1.9662">
        <ele>1</ele>
        <time>2018-03-21T12:52:49Z</time>
      </trkpt>
      <trkpt lat="46.75693" lon="-1.96637">
        <ele>1</ele>
        <time>2018-03-21T12:53:49Z</time>
      </trkpt>
      <trkpt lat="46.75663" lon="-1.96663">
        <ele>2</ele>
        <time>2018-03-21T12:54:49Z</time>
      </trkpt>
      <trkpt lat="46.75637" lon="-1.96696">
        <ele>2</ele>
        <time>2018-03-21T12:55:49Z</time>
      </trkpt>
      <trkpt lat="46.75618" lon="-1.96744">
        <ele>3</ele>
        <time>2018-03-21T12:56:49Z</time>
      </trkpt>
      <trkpt lat="46.75602" lon="-1.96823">
        <ele>6</ele>
        <time>2018-03-21T12:57:49Z</time>
      </trkpt>
      <trkpt lat="46.75616" lon="-1.97017">
        <ele>7</ele>
        <time>2018-03-21T12:58:49Z</time>
      </trkpt>
      <trkpt lat="46.75646" lon="-1.97304">
        <ele>6</ele>
        <time>2018-03-21T12:59:49Z</time>
      </trkpt>
      <trkpt lat="46.75666" lon="-1.97407">
        <ele>5</ele>
        <time>2018-03-21T13:00:49Z</time>
      </trkpt>
      <trkpt lat="46.75681" lon="-1.9745">
        <ele>5</ele>
        <time>2018-03-21T13:01:49Z</time>
      </trkpt>
      <trkpt lat="46.75712" lon="-1.97547">
        <ele>6</ele>
        <time>2018-03-21T13:02:49Z</time>
      </trkpt>
      <trkpt lat="46.75717" lon="-1.9761">
        <ele>6</ele>
        <time>2018-03-21T13:03:49Z</time>
      </trkpt>
      <trkpt lat="46.75717" lon="-1.97706">
        <ele>7</ele>
        <time>2018-03-21T13:04:49Z</time>
      </trkpt>
      <trkpt lat="46.75743" lon="-1.97783">
        <ele>6</ele>
        <time>2018-03-21T13:05:49Z</time>
      </trkpt>
      <trkpt lat="46.75774" lon="-1.97884">
        <ele>5</ele>
        <time>2018-03-21T13:06:49Z</time>
      </trkpt>
      <trkpt lat="46.75822" lon="-1.98051">
        <ele>5</ele>
        <time>2018-03-21T13:07:49Z</time>
      </trkpt>
      <trkpt lat="46.75858" lon="-1.98267">
        <ele>5</ele>
        <time>2018-03-21T13:08:49Z</time>
      </trkpt>
      <trkpt lat="46.75862" lon="-1.98424">
        <ele>7</ele>
        <time>2018-03-21T13:09:49Z</time>
      </trkpt>
      <trkpt lat="46.75898" lon="-1.98613">
        <ele>5</ele>
        <time>2018-03-21T13:10:49Z</time>
      </trkpt>
      <trkpt lat="46.75912" lon="-1.98739">
        <ele>4</ele>
        <time>2018-03-21T13:11:49Z</time>
      </trkpt>
      <trkpt lat="46.75941" lon="-1.98853">
        <ele>5</ele>
        <time>2018-03-21T13:12:49Z</time>
      </trkpt>
      <trkpt lat="46.75987" lon="-1.98995">
        <ele>4</ele>
        <time>2018-03-21T13:13:49Z</time>
      </trkpt>
      <trkpt lat="46.76008" lon="-1.99124">
        <ele>4</ele>
        <time>2018-03-21T13:14:49Z</time>
      </trkpt>
      <trkpt lat="46.76042" lon="-1.99249">
        <ele>3</ele>
        <time>2018-03-21T13:15:49Z</time>
      </trkpt>
      <trkpt lat="46.76062" lon="-1.99275">
        <ele>3</ele>
        <time>2018-03-21T13:16:49Z</time>
      </trkpt>
      <trkpt lat="46.76036" lon="-1.99311">
        <ele>2</ele>
        <time>2018-03-21T13:17:49Z</time>
      </trkpt>
      <trkpt lat="46.76005" lon="-1.99342">
        <ele>2</ele>
        <time>2018-03-21T13:18:49Z</time>
      </trkpt>
      <trkpt lat="46.75895" lon="-1.99446">
        <ele>1</ele>
        <time>2018-03-21T13:19:49Z</time>
      </trkpt>
      <trkpt lat="46.75856" lon="-1.99499">
        <ele>1</ele>
        <time>2018-03-21T13:20:49Z</time>
      </trkpt>
      <trkpt lat="46.75749" lon="-1.99658">
        <ele>1</ele>
        <time>2018-03-21T13:21:49Z</time>
      </trkpt>
      <trkpt lat="46.7571" lon="-1.99702">
        <ele>1</ele>
        <time>2018-03-21T13:22:49Z</time>
      </trkpt>
      <trkpt lat="46.75693" lon="-1.99708">
        <ele>1</ele>
        <time>2018-03-21T13:23:49Z</time>
      </trkpt>
      <trkpt lat="46.75632" lon="-1.99707">
        <ele>1</ele>
        <time>2018-03-21T13:24:49Z</time>
      </trkpt>
      <trkpt lat="46.75619" lon="-1.99716">
        <ele>1</ele>
        <time>2018-03-21T13:25:49Z</time>
      </trkpt>
      <trkpt lat="46.75612" lon="-1.99727">
        <ele>1</ele>
        <time>2018-03-21T13:26:49Z</time>
      </trkpt>
      <trkpt lat="46.75607" lon="-1.99761">
        <ele>1</ele>
        <time>2018-03-21T13:27:49Z</time>
      </trkpt>
      <trkpt lat="46.75595" lon="-1.99813">
        <ele>1</ele>
        <time>2018-03-21T13:28:49Z</time>
      </trkpt>
      <trkpt lat="46.75565" lon="-1.99909">
        <ele>1</ele>
        <time>2018-03-21T13:29:49Z</time>
      </trkpt>
      <trkpt lat="46.75542" lon="-1.99975">
        <ele>2</ele>
        <time>2018-03-21T13:30:49Z</time>
      </trkpt>
      <trkpt lat="46.75523" lon="-2.00014">
        <ele>2</ele>
        <time>2018-03-21T13:31:49Z</time>
      </trkpt>
      <trkpt lat="46.75516" lon="-2.00039">
        <ele>2</ele>
        <time>2018-03-21T13:32:49Z</time>
      </trkpt>
      <trkpt lat="46.75508" lon="-2.00103">
        <ele>2.5</ele>
        <time>2018-03-21T13:33:49Z</time>
      </trkpt>
      <trkpt lat="46.75488" lon="-2.00133">
        <ele>1</ele>
        <time>2018-03-21T13:34:49Z</time>
      </trkpt>
      <trkpt lat="46.75456" lon="-2.00258">
        <ele>2</ele>
        <time>2018-03-21T13:35:49Z</time>
      </trkpt>
      <trkpt lat="46.7546" lon="-2.00283">
        <ele>2</ele>
        <time>2018-03-21T13:36:49Z</time>
      </trkpt>
      <trkpt lat="46.75497" lon="-2.00354">
        <ele>2</ele>
        <time>2018-03-21T13:37:49Z</time>
      </trkpt>
      <trkpt lat="46.75518" lon="-2.00413">
        <ele>3</ele>
        <time>2018-03-21T13:38:49Z</time>
      </trkpt>
      <trkpt lat="46.75523" lon="-2.00463">
        <ele>3</ele>
        <time>2018-03-21T13:39:49Z</time>
      </trkpt>
      <trkpt lat="46.75526" lon="-2.00616">
        <ele>4</ele>
        <time>2018-03-21T13:40:49Z</time>
      </trkpt>
      <trkpt lat="46.75546" lon="-2.00681">
        <ele>4</ele>
        <time>2018-03-21T13:41:49Z</time>
      </trkpt>
      <trkpt lat="46.75557" lon="-2.00703">
        <ele>4</ele>
        <time>2018-03-21T13:42:49Z</time>
      </trkpt>
      <trkpt lat="46.75647" lon="-2.0077">
        <ele>4</ele>
        <time>2018-03-21T13:43:49Z</time>
      </trkpt>
      <trkpt lat="46.75727" lon="-2.00829">
        <ele>5</ele>
        <time>2018-03-21T13:44:49Z</time>
      </trkpt>
      <trkpt lat="46.75753" lon="-2.00843">
        <ele>5</ele>
        <time>2018-03-21T13:45:49Z</time>
      </trkpt>
      <trkpt lat="46.75771" lon="-2.00849">
        <ele>5</ele>
        <time>2018-03-21T13:46:49Z</time>
      </trkpt>
      <trkpt lat="46.75771" lon="-2.00849">
        <ele>5</ele>
        <time>2018-03-21T13:47:49Z</time>
      </trkpt>
      <trkpt lat="46.75811" lon="-2.00862">
        <ele>4</ele>
        <time>2018-03-21T13:48:49Z</time>
      </trkpt>
      <trkpt lat="46.75873" lon="-2.00901">
        <ele>4</ele>
        <time>2018-03-21T13:49:49Z</time>
      </trkpt>
      <trkpt lat="46.75963" lon="-2.00962">
        <ele>4</ele>
        <time>2018-03-21T13:50:49Z</time>
      </trkpt>
      <trkpt lat="46.7601" lon="-2.01014">
        <ele>5</ele>
        <time>2018-03-21T13:51:49Z</time>
      </trkpt>
      <trkpt lat="46.76086" lon="-2.01121">
        <ele>4</ele>
        <time>2018-03-21T13:52:49Z</time>
      </trkpt>
      <trkpt lat="46.76091" lon="-2.01135">
        <ele>5</ele>
        <time>2018-03-21T13:53:49Z</time>
      </trkpt>
      <trkpt lat="46.76068" lon="-2.0113">
        <ele>5</ele>
        <time>2018-03-21T13:54:49Z</time>
      </trkpt>
      <trkpt lat="46.75851" lon="-2.0117">
        <ele>4</ele>
        <time>2018-03-21T13:55:49Z</time>
      </trkpt>
      <trkpt lat="46.75654" lon="-2.0124">
        <ele>4</ele>
        <time>2018-03-21T13:56:49Z</time>
      </trkpt>
      <trkpt lat="46.75612" lon="-2.01257">
        <ele>3</ele>
        <time>2018-03-21T13:57:49Z</time>
      </trkpt>
      <trkpt lat="46.75565" lon="-2.0128">
        <ele>3</ele>
        <time>2018-03-21T13:58:49Z</time>
      </trkpt>
      <trkpt lat="46.75428" lon="-2.01389">
        <ele>2</ele>
        <time>2018-03-21T13:59:49Z</time>
      </trkpt>
      <trkpt lat="46.75372" lon="-2.01429">
        <ele>1</ele>
        <time>2018-03-21T14:00:49Z</time>
      </trkpt>
      <trkpt lat="46.75297" lon="-2.01472">
        <ele>1</ele>
        <time>2018-03-21T14:01:49Z</time>
      </trkpt>
      <trkpt lat="46.75223" lon="-2.01512">
        <ele>2</ele>
        <time>2018-03-21T14:02:49Z</time>
      </trkpt>
      <trkpt lat="46.75173" lon="-2.01545">
        <ele>1</ele>
        <time>2018-03-21T14:03:49Z</time>
      </trkpt>
      <trkpt lat="46.7514" lon="-2.01575">
        <ele>3</ele>
        <time>2018-03-21T14:04:49Z</time>
      </trkpt>
      <trkpt lat="46.75131" lon="-2.01589">
        <ele>3</ele>
        <time>2018-03-21T14:05:49Z</time>
      </trkpt>
      <trkpt lat="46.75136" lon="-2.01597">
        <ele>3</ele>
        <time>2018-03-21T14:06:49Z</time>
      </trkpt>
      <trkpt lat="46.75137" lon="-2.01608">
        <ele>3</ele>
        <time>2018-03-21T14:07:49Z</time>
      </trkpt>
      <trkpt lat="46.75135" lon="-2.01618">
        <ele>3</ele>
        <time>2018-03-21T14:08:49Z</time>
      </trkpt>
      <trkpt lat="46.7513" lon="-2.01625">
        <ele>4</ele>
        <time>2018-03-21T14:09:49Z</time>
      </trkpt>
      <trkpt lat="46.75124" lon="-2.01628">
        <ele>4</ele>
        <time>2018-03-21T14:10:49Z</time>
      </trkpt>
      <trkpt lat="46.75116" lon="-2.01626">
        <ele>4</ele>
        <time>2018-03-21T14:11:49Z</time>
      </trkpt>
      <trkpt lat="46.75111" lon="-2.01621">
        <ele>4</ele>
        <time>2018-03-21T14:12:49Z</time>
      </trkpt>
      <trkpt lat="46.75109" lon="-2.01614">
        <ele>4</ele>
        <time>2018-03-21T14:13:49Z</time>
      </trkpt>
      <trkpt lat="46.75108" lon="-2.01606">
        <ele>4</ele>
        <time>2018-03-21T14:14:49Z</time>
      </trkpt>
      <trkpt lat="46.75111" lon="-2.01593">
        <ele>3</ele>
        <time>2018-03-21T14:15:49Z</time>
      </trkpt>
      <trkpt lat="46.75093" lon="-2.01579">
        <ele>4</ele>
        <time>2018-03-21T14:16:49Z</time>
      </trkpt>
      <trkpt lat="46.75079" lon="-2.01562">
        <ele>4</ele>
        <time>2018-03-21T14:17:49Z</time>
      </trkpt>
      <trkpt lat="46.75038" lon="-2.01508">
        <ele>4</ele>
        <time>2018-03-21T14:18:49Z</time>
      </trkpt>
      <trkpt lat="46.75038" lon="-2.01508">
        <ele>4</ele>
        <time>2018-03-21T14:19:49Z</time>
      </trkpt>
      <trkpt lat="46.75018" lon="-2.01479">
        <ele>4</ele>
        <time>2018-03-21T14:20:49Z</time>
      </trkpt>
      <trkpt lat="46.74971" lon="-2.01393">
        <ele>5</ele>
        <time>2018-03-21T14:21:49Z</time>
      </trkpt>
      <trkpt lat="46.74946" lon="-2.0136">
        <ele>6</ele>
        <time>2018-03-21T14:22:49Z</time>
      </trkpt>
      <trkpt lat="46.7493" lon="-2.01347">
        <ele>7</ele>
        <time>2018-03-21T14:23:49Z</time>
      </trkpt>
      <trkpt lat="46.74799" lon="-2.01275">
        <ele>6</ele>
        <time>2018-03-21T14:24:49Z</time>
      </trkpt>
      <trkpt lat="46.74683" lon="-2.012">
        <ele>8</ele>
        <time>2018-03-21T14:25:49Z</time>
      </trkpt>
      <trkpt lat="46.74665" lon="-2.01185">
        <ele>8</ele>
        <time>2018-03-21T14:26:49Z</time>
      </trkpt>
      <trkpt lat="46.74637" lon="-2.01158">
        <ele>8</ele>
        <time>2018-03-21T14:27:49Z</time>
      </trkpt>
      <trkpt lat="46.74527" lon="-2.01027">
        <ele>5</ele>
        <time>2018-03-21T14:28:49Z</time>
      </trkpt>
      <trkpt lat="46.74368" lon="-2.0089">
        <ele>3</ele>
        <time>2018-03-21T14:29:49Z</time>
      </trkpt>
      <trkpt lat="46.74347" lon="-2.00869">
        <ele>3</ele>
        <time>2018-03-21T14:30:49Z</time>
      </trkpt>
      <trkpt lat="46.74334" lon="-2.00852">
        <ele>3</ele>
        <time>2018-03-21T14:31:49Z</time>
      </trkpt>
      <trkpt lat="46.74263" lon="-2.00734">
        <ele>2</ele>
        <time>2018-03-21T14:32:49Z</time>
      </trkpt>
      <trkpt lat="46.74151" lon="-2.00568">
        <ele>3</ele>
        <time>2018-03-21T14:33:49Z</time>
      </trkpt>
      <trkpt lat="46.74116" lon="-2.00521">
        <ele>3</ele>
        <time>2018-03-21T14:34:49Z</time>
      </trkpt>
      <trkpt lat="46.74096" lon="-2.00482">
        <ele>3</ele>
        <time>2018-03-21T14:35:49Z</time>
      </trkpt>
      <trkpt lat="46.74072" lon="-2.00426">
        <ele>3</ele>
        <time>2018-03-21T14:36:49Z</time>
      </trkpt>
      <trkpt lat="46.74066" lon="-2.00407">
        <ele>3</ele>
        <time>2018-03-21T14:37:49Z</time>
      </trkpt>
      <trkpt lat="46.74064" lon="-2.00392">
        <ele>3</ele>
        <time>2018-03-21T14:38:49Z</time>
      </trkpt>
      <trkpt lat="46.74065" lon="-2.00361">
        <ele>3</ele>
        <time>2018-03-21T14:39:49Z</time>
      </trkpt>
      <trkpt lat="46.74081" lon="-2.00289">
        <ele>3</ele>
        <time>2018-03-21T14:40:49Z</time>
      </trkpt>
      <trkpt lat="46.74114" lon="-2.00165">
        <ele>5</ele>
        <time>2018-03-21T14:41:49Z</time>
      </trkpt>
      <trkpt lat="46.74122" lon="-2.00117">
        <ele>6</ele>
        <time>2018-03-21T14:42:49Z</time>
      </trkpt>
      <trkpt lat="46.7413" lon="-2.0006">
        <ele>6</ele>
        <time>2018-03-21T14:43:49Z</time>
      </trkpt>
      <trkpt lat="46.74134" lon="-2.00018">
        <ele>6</ele>
        <time>2018-03-21T14:44:49Z</time>
      </trkpt>
      <trkpt lat="46.74156" lon="-1.99676">
        <ele>5</ele>
        <time>2018-03-21T14:45:49Z</time>
      </trkpt>
      <trkpt lat="46.74166" lon="-1.99622">
        <ele>6</ele>
        <time>2018-03-21T14:46:49Z</time>
      </trkpt>
      <trkpt lat="46.74204" lon="-1.99476">
        <ele>5</ele>
        <time>2018-03-21T14:47:49Z</time>
      </trkpt>
      <trkpt lat="46.7421" lon="-1.99439">
        <ele>5</ele>
        <time>2018-03-21T14:48:49Z</time>
      </trkpt>
      <trkpt lat="46.74215" lon="-1.99395">
        <ele>5</ele>
        <time>2018-03-21T14:49:49Z</time>
      </trkpt>
      <trkpt lat="46.74215" lon="-1.99367">
        <ele>5</ele>
        <time>2018-03-21T14:50:49Z</time>
      </trkpt>
      <trkpt lat="46.74211" lon="-1.99346">
        <ele>5</ele>
        <time>2018-03-21T14:51:49Z</time>
      </trkpt>
      <trkpt lat="46.74206" lon="-1.99331">
        <ele>6</ele>
        <time>2018-03-21T14:52:49Z</time>
      </trkpt>
      <trkpt lat="46.74202" lon="-1.99322">
        <ele>5</ele>
        <time>2018-03-21T14:53:49Z</time>
      </trkpt>
      <trkpt lat="46.74198" lon="-1.99325">
        <ele>6</ele>
        <time>2018-03-21T14:54:49Z</time>
      </trkpt>
      <trkpt lat="46.74189" lon="-1.99326">
        <ele>6</ele>
        <time>2018-03-21T14:55:49Z</time>
      </trkpt>
      <trkpt lat="46.74182" lon="-1.9932">
        <ele>6</ele>
        <time>2018-03-21T14:56:49Z</time>
      </trkpt>
      <trkpt lat="46.74177" lon="-1.99308">
        <ele>6</ele>
        <time>2018-03-21T14:57:49Z</time>
      </trkpt>
      <trkpt lat="46.74178" lon="-1.99296">
        <ele>5</ele>
        <time>2018-03-21T14:58:49Z</time>
      </trkpt>
      <trkpt lat="46.7418" lon="-1.9929">
        <ele>5</ele>
        <time>2018-03-21T14:59:49Z</time>
      </trkpt>
      <trkpt lat="46.74169" lon="-1.99283">
        <ele>5</ele>
        <time>2018-03-21T15:00:49Z</time>
      </trkpt>
      <trkpt lat="46.7401" lon="-1.99263">
        <ele>9</ele>
        <time>2018-03-21T15:01:49Z</time>
      </trkpt>
      <trkpt lat="46.73969" lon="-1.99248">
        <ele>9</ele>
        <time>2018-03-21T15:02:49Z</time>
      </trkpt>
      <trkpt lat="46.73937" lon="-1.99228">
        <ele>8</ele>
        <time>2018-03-21T15:03:49Z</time>
      </trkpt>
      <trkpt lat="46.73922" lon="-1.99216">
        <ele>8</ele>
        <time>2018-03-21T15:04:49Z</time>
      </trkpt>
      <trkpt lat="46.73922" lon="-1.99216">
        <ele>8</ele>
        <time>2018-03-21T15:05:49Z</time>
      </trkpt>
      <trkpt lat="46.73868" lon="-1.99171">
        <ele>7</ele>
        <time>2018-03-21T15:06:49Z</time>
      </trkpt>
      <trkpt lat="46.73718" lon="-1.99022">
        <ele>8</ele>
        <time>2018-03-21T15:07:49Z</time>
      </trkpt>
      <trkpt lat="46.73548" lon="-1.98858">
        <ele>7</ele>
        <time>2018-03-21T15:08:49Z</time>
      </trkpt>
      <trkpt lat="46.7342" lon="-1.98729">
        <ele>9</ele>
        <time>2018-03-21T15:09:49Z</time>
      </trkpt>
      <trkpt lat="46.73407" lon="-1.98711">
        <ele>9</ele>
        <time>2018-03-21T15:10:49Z</time>
      </trkpt>
      <trkpt lat="46.73401" lon="-1.98697">
        <ele>9</ele>
        <time>2018-03-21T15:11:49Z</time>
      </trkpt>
      <trkpt lat="46.73394" lon="-1.98674">
        <ele>9</ele>
        <time>2018-03-21T15:12:49Z</time>
      </trkpt>
      <trkpt lat="46.73389" lon="-1.98647">
        <ele>9</ele>
        <time>2018-03-21T15:13:49Z</time>
      </trkpt>
      <trkpt lat="46.73382" lon="-1.98567">
        <ele>9</ele>
        <time>2018-03-21T15:14:49Z</time>
      </trkpt>
      <trkpt lat="46.73375" lon="-1.9854">
        <ele>9</ele>
        <time>2018-03-21T15:15:49Z</time>
      </trkpt>
      <trkpt lat="46.73366" lon="-1.98516">
        <ele>9</ele>
        <time>2018-03-21T15:16:49Z</time>
      </trkpt>
      <trkpt lat="46.73352" lon="-1.98492">
        <ele>10</ele>
        <time>2018-03-21T15:17:49Z</time>
      </trkpt>
      <trkpt lat="46.73333" lon="-1.98467">
        <ele>10</ele>
        <time>2018-03-21T15:18:49Z</time>
      </trkpt>
      <trkpt lat="46.73184" lon="-1.98324">
        <ele>12</ele>
        <time>2018-03-21T15:19:49Z</time>
      </trkpt>
      <trkpt lat="46.73163" lon="-1.98309">
        <ele>12</ele>
        <time>2018-03-21T15:20:49Z</time>
      </trkpt>
      <trkpt lat="46.72736" lon="-1.98125">
        <ele>11</ele>
        <time>2018-03-21T15:21:49Z</time>
      </trkpt>
      <trkpt lat="46.725" lon="-1.97964">
        <ele>8</ele>
        <time>2018-03-21T15:22:49Z</time>
      </trkpt>
      <trkpt lat="46.72479" lon="-1.97942">
        <ele>8</ele>
        <time>2018-03-21T15:23:49Z</time>
      </trkpt>
      <trkpt lat="46.72452" lon="-1.97911">
        <ele>8</ele>
        <time>2018-03-21T15:24:49Z</time>
      </trkpt>
      <trkpt lat="46.72408" lon="-1.97845">
        <ele>7</ele>
        <time>2018-03-21T15:25:49Z</time>
      </trkpt>
      <trkpt lat="46.72404" lon="-1.97848">
        <ele>7</ele>
        <time>2018-03-21T15:26:49Z</time>
      </trkpt>
      <trkpt lat="46.724" lon="-1.97848">
        <ele>7</ele>
        <time>2018-03-21T15:27:49Z</time>
      </trkpt>
      <trkpt lat="46.72396" lon="-1.97844">
        <ele>7</ele>
        <time>2018-03-21T15:28:49Z</time>
      </trkpt>
      <trkpt lat="46.72394" lon="-1.97837">
        <ele>7</ele>
        <time>2018-03-21T15:29:49Z</time>
      </trkpt>
      <trkpt lat="46.72395" lon="-1.9783">
        <ele>7</ele>
        <time>2018-03-21T15:30:49Z</time>
      </trkpt>
      <trkpt lat="46.72398" lon="-1.97826">
        <ele>7</ele>
        <time>2018-03-21T15:31:49Z</time>
      </trkpt>
      <trkpt lat="46.72077" lon="-1.97262">
        <ele>9</ele>
        <time>2018-03-21T15:32:49Z</time>
      </trkpt>
      <trkpt lat="46.71876" lon="-1.9688">
        <ele>15</ele>
        <time>2018-03-21T15:33:49Z</time>
      </trkpt>
      <trkpt lat="46.7187" lon="-1.96879">
        <ele>15</ele>
        <time>2018-03-21T15:34:49Z</time>
      </trkpt>
      <trkpt lat="46.71864" lon="-1.96875">
        <ele>15</ele>
        <time>2018-03-21T15:35:49Z</time>
      </trkpt>
      <trkpt lat="46.71846" lon="-1.96871">
        <ele>15</ele>
        <time>2018-03-21T15:36:49Z</time>
      </trkpt>
      <trkpt lat="46.71832" lon="-1.9688">
        <ele>15</ele>
        <time>2018-03-21T15:37:49Z</time>
      </trkpt>
      <trkpt lat="46.71822" lon="-1.96903">
        <ele>15</ele>
        <time>2018-03-21T15:38:49Z</time>
      </trkpt>
      <trkpt lat="46.71813" lon="-1.9691">
        <ele>14</ele>
        <time>2018-03-21T15:39:49Z</time>
      </trkpt>
      <trkpt lat="46.71832" lon="-1.96862">
        <ele>14</ele>
        <time>2018-03-21T15:40:49Z</time>
      </trkpt>
      <trkpt lat="46.71803" lon="-1.96841">
        <ele>14</ele>
        <time>2018-03-21T15:41:49Z</time>
      </trkpt>
      <trkpt lat="46.71743" lon="-1.96818">
        <ele>13</ele>
        <time>2018-03-21T15:42:49Z</time>
      </trkpt>
      <trkpt lat="46.71702" lon="-1.96789">
        <ele>13</ele>
        <time>2018-03-21T15:43:49Z</time>
      </trkpt>
      <trkpt lat="46.71681" lon="-1.96777">
        <ele>14</ele>
        <time>2018-03-21T15:44:49Z</time>
      </trkpt>
      <trkpt lat="46.71664" lon="-1.96774">
        <ele>14</ele>
        <time>2018-03-21T15:45:49Z</time>
      </trkpt>
      <trkpt lat="46.71649" lon="-1.96774">
        <ele>14</ele>
        <time>2018-03-21T15:46:49Z</time>
      </trkpt>
      <trkpt lat="46.71589" lon="-1.9681">
        <ele>14</ele>
        <time>2018-03-21T15:47:49Z</time>
      </trkpt>
      <trkpt lat="46.71575" lon="-1.96812">
        <ele>14</ele>
        <time>2018-03-21T15:48:49Z</time>
      </trkpt>
      <trkpt lat="46.71488" lon="-1.96806">
        <ele>13</ele>
        <time>2018-03-21T15:49:49Z</time>
      </trkpt>
      <trkpt lat="46.71488" lon="-1.96806">
        <ele>13</ele>
        <time>2018-03-21T15:50:49Z</time>
      </trkpt>
      <trkpt lat="46.71473" lon="-1.96803">
        <ele>13</ele>
        <time>2018-03-21T15:51:49Z</time>
      </trkpt>
      <trkpt lat="46.71406" lon="-1.96782">
        <ele>14</ele>
        <time>2018-03-21T15:52:49Z</time>
      </trkpt>
      <trkpt lat="46.71401" lon="-1.96782">
        <ele>14</ele>
        <time>2018-03-21T15:53:49Z</time>
      </trkpt>
      <trkpt lat="46.71366" lon="-1.96764">
        <ele>15</ele>
        <time>2018-03-21T15:54:49Z</time>
      </trkpt>
      <trkpt lat="46.71324" lon="-1.96755">
        <ele>17</ele>
        <time>2018-03-21T15:55:49Z</time>
      </trkpt>
      <trkpt lat="46.71286" lon="-1.96755">
        <ele>16</ele>
        <time>2018-03-21T15:56:49Z</time>
      </trkpt>
      <trkpt lat="46.7125" lon="-1.96763">
        <ele>15</ele>
        <time>2018-03-21T15:57:49Z</time>
      </trkpt>
      <trkpt lat="46.71237" lon="-1.96768">
        <ele>15</ele>
        <time>2018-03-21T15:58:49Z</time>
      </trkpt>
      <trkpt lat="46.71045" lon="-1.96769">
        <ele>13</ele>
        <time>2018-03-21T15:59:49Z</time>
      </trkpt>
      <trkpt lat="46.71025" lon="-1.96781">
        <ele>13</ele>
        <time>2018-03-21T16:00:49Z</time>
      </trkpt>
      <trkpt lat="46.71021" lon="-1.96789">
        <ele>13</ele>
        <time>2018-03-21T16:01:49Z</time>
      </trkpt>
      <trkpt lat="46.71015" lon="-1.96796">
        <ele>13</ele>
        <time>2018-03-21T16:02:49Z</time>
      </trkpt>
      <trkpt lat="46.71007" lon="-1.96797">
        <ele>13</ele>
        <time>2018-03-21T16:03:49Z</time>
      </trkpt>
      <trkpt lat="46.70999" lon="-1.96793">
        <ele>13</ele>
        <time>2018-03-21T16:04:49Z</time>
      </trkpt>
      <trkpt lat="46.70994" lon="-1.96784">
        <ele>13</ele>
        <time>2018-03-21T16:05:49Z</time>
      </trkpt>
      <trkpt lat="46.70992" lon="-1.96773">
        <ele>13</ele>
        <time>2018-03-21T16:06:49Z</time>
      </trkpt>
      <trkpt lat="46.70994" lon="-1.96761">
        <ele>13</ele>
        <time>2018-03-21T16:07:49Z</time>
      </trkpt>
      <trkpt lat="46.70985" lon="-1.96728">
        <ele>13</ele>
        <time>2018-03-21T16:08:49Z</time>
      </trkpt>
      <trkpt lat="46.70949" lon="-1.96643">
        <ele>13</ele>
        <time>2018-03-21T16:09:49Z</time>
      </trkpt>
      <trkpt lat="46.70942" lon="-1.96622">
        <ele>13</ele>
        <time>2018-03-21T16:10:49Z</time>
      </trkpt>
      <trkpt lat="46.70939" lon="-1.96593">
        <ele>13</ele>
        <time>2018-03-21T16:11:49Z</time>
      </trkpt>
      <trkpt lat="46.70944" lon="-1.96518">
        <ele>14</ele>
        <time>2018-03-21T16:12:49Z</time>
      </trkpt>
      <trkpt lat="46.70959" lon="-1.96471">
        <ele>14</ele>
        <time>2018-03-21T16:13:49Z</time>
      </trkpt>
      <trkpt lat="46.70972" lon="-1.96401">
        <ele>14</ele>
        <time>2018-03-21T16:14:49Z</time>
      </trkpt>
      <trkpt lat="46.70979" lon="-1.96353">
        <ele>13</ele>
        <time>2018-03-21T16:15:49Z</time>
      </trkpt>
      <trkpt lat="46.7098" lon="-1.96329">
        <ele>13</ele>
        <time>2018-03-21T16:16:49Z</time>
      </trkpt>
      <trkpt lat="46.7098" lon="-1.96329">
        <ele>13</ele>
        <time>2018-03-21T16:17:49Z</time>
      </trkpt>
      <trkpt lat="46.70981" lon="-1.96248">
        <ele>13</ele>
        <time>2018-03-21T16:18:49Z</time>
      </trkpt>
      <trkpt lat="46.70978" lon="-1.96126">
        <ele>15</ele>
        <time>2018-03-21T16:19:49Z</time>
      </trkpt>
      <trkpt lat="46.70977" lon="-1.96108">
        <ele>16</ele>
        <time>2018-03-21T16:20:49Z</time>
      </trkpt>
      <trkpt lat="46.70971" lon="-1.96104">
        <ele>16</ele>
        <time>2018-03-21T16:21:49Z</time>
      </trkpt>
      <trkpt lat="46.7097" lon="-1.96097">
        <ele>16</ele>
        <time>2018-03-21T16:22:49Z</time>
      </trkpt>
      <trkpt lat="46.70824" lon="-1.96083">
        <ele>15</ele>
        <time>2018-03-21T16:23:49Z</time>
      </trkpt>
      <trkpt lat="46.70737" lon="-1.96077">
        <ele>16</ele>
        <time>2018-03-21T16:24:49Z</time>
      </trkpt>
      <trkpt lat="46.70712" lon="-1.96092">
        <ele>16</ele>
        <time>2018-03-21T16:25:49Z</time>
      </trkpt>
      <trkpt lat="46.70703" lon="-1.96086">
        <ele>16</ele>
        <time>2018-03-21T16:26:49Z</time>
      </trkpt>
      <trkpt lat="46.70704" lon="-1.96073">
        <ele>16</ele>
        <time>2018-03-21T16:27:49Z</time>
      </trkpt>
      <trkpt lat="46.70592" lon="-1.96057">
        <ele>16</ele>
        <time>2018-03-21T16:28:49Z</time>
      </trkpt>
      <trkpt lat="46.70494" lon="-1.96027">
        <ele>15</ele>
        <time>2018-03-21T16:29:49Z</time>
      </trkpt>
      <trkpt lat="46.70461" lon="-1.96012">
        <ele>15</ele>
        <time>2018-03-21T16:30:49Z</time>
      </trkpt>
      <trkpt lat="46.70359" lon="-1.95952">
        <ele>15</ele>
        <time>2018-03-21T16:31:49Z</time>
      </trkpt>
      <trkpt lat="46.70354" lon="-1.95957">
        <ele>15</ele>
        <time>2018-03-21T16:32:49Z</time>
      </trkpt>
      <trkpt lat="46.70348" lon="-1.95957">
        <ele>15</ele>
        <time>2018-03-21T16:33:49Z</time>
      </trkpt>
      <trkpt lat="46.70344" lon="-1.9595">
        <ele>15</ele>
        <time>2018-03-21T16:34:49Z</time>
      </trkpt>
      <trkpt lat="46.70345" lon="-1.95942">
        <ele>14</ele>
        <time>2018-03-21T16:35:49Z</time>
      </trkpt>
      <trkpt lat="46.70273" lon="-1.95874">
        <ele>13</ele>
        <time>2018-03-21T16:36:49Z</time>
      </trkpt>
      <trkpt lat="46.70251" lon="-1.95847">
        <ele>12</ele>
        <time>2018-03-21T16:37:49Z</time>
      </trkpt>
      <trkpt lat="46.70227" lon="-1.95815">
        <ele>12</ele>
        <time>2018-03-21T16:38:49Z</time>
      </trkpt>
      <trkpt lat="46.70208" lon="-1.95782">
        <ele>12</ele>
        <time>2018-03-21T16:39:49Z</time>
      </trkpt>
      <trkpt lat="46.70184" lon="-1.95714">
        <ele>12</ele>
        <time>2018-03-21T16:40:49Z</time>
      </trkpt>
      <trkpt lat="46.70168" lon="-1.95656">
        <ele>12</ele>
        <time>2018-03-21T16:41:49Z</time>
      </trkpt>
      <trkpt lat="46.70165" lon="-1.95657">
        <ele>12</ele>
        <time>2018-03-21T16:42:49Z</time>
      </trkpt>
      <trkpt lat="46.70159" lon="-1.95652">
        <ele>12</ele>
        <time>2018-03-21T16:43:49Z</time>
      </trkpt>
      <trkpt lat="46.70157" lon="-1.95647">
        <ele>12</ele>
        <time>2018-03-21T16:44:49Z</time>
      </trkpt>
      <trkpt lat="46.70157" lon="-1.9564">
        <ele>12</ele>
        <time>2018-03-21T16:45:49Z</time>
      </trkpt>
      <trkpt lat="46.70161" lon="-1.9563">
        <ele>11</ele>
        <time>2018-03-21T16:46:49Z</time>
      </trkpt>
      <trkpt lat="46.70163" lon="-1.95628">
        <ele>11</ele>
        <time>2018-03-21T16:47:49Z</time>
      </trkpt>
      <trkpt lat="46.70159" lon="-1.95594">
        <ele>10</ele>
        <time>2018-03-21T16:48:49Z</time>
      </trkpt>
      <trkpt lat="46.70142" lon="-1.95491">
        <ele>9</ele>
        <time>2018-03-21T16:49:49Z</time>
      </trkpt>
      <trkpt lat="46.70137" lon="-1.95441">
        <ele>9</ele>
        <time>2018-03-21T16:50:49Z</time>
      </trkpt>
      <trkpt lat="46.70141" lon="-1.9539">
        <ele>8</ele>
        <time>2018-03-21T16:51:49Z</time>
      </trkpt>
      <trkpt lat="46.70162" lon="-1.95255">
        <ele>5</ele>
        <time>2018-03-21T16:52:49Z</time>
      </trkpt>
      <trkpt lat="46.70163" lon="-1.95164">
        <ele>6</ele>
        <time>2018-03-21T16:53:49Z</time>
      </trkpt>
      <trkpt lat="46.70157" lon="-1.95112">
        <ele>5</ele>
        <time>2018-03-21T16:54:49Z</time>
      </trkpt>
      <trkpt lat="46.70155" lon="-1.9506">
        <ele>5</ele>
        <time>2018-03-21T16:55:49Z</time>
      </trkpt>
      <trkpt lat="46.70158" lon="-1.94877">
        <ele>2</ele>
        <time>2018-03-21T16:56:49Z</time>
      </trkpt>
      <trkpt lat="46.70164" lon="-1.94733">
        <ele>3</ele>
        <time>2018-03-21T16:57:49Z</time>
      </trkpt>
      <trkpt lat="46.70167" lon="-1.94686">
        <ele>4</ele>
        <time>2018-03-21T16:58:49Z</time>
      </trkpt>
      <trkpt lat="46.70162" lon="-1.94687">
        <ele>4</ele>
        <time>2018-03-21T16:59:49Z</time>
      </trkpt>
      <trkpt lat="46.70156" lon="-1.94682">
        <ele>4</ele>
        <time>2018-03-21T17:00:49Z</time>
      </trkpt>
      <trkpt lat="46.70154" lon="-1.94677">
        <ele>4</ele>
        <time>2018-03-21T17:01:49Z</time>
      </trkpt>
      <trkpt lat="46.70154" lon="-1.94666">
        <ele>4</ele>
        <time>2018-03-21T17:02:49Z</time>
      </trkpt>
      <trkpt lat="46.7016" lon="-1.94657">
        <ele>4</ele>
        <time>2018-03-21T17:03:49Z</time>
      </trkpt>
      <trkpt lat="46.70165" lon="-1.94656">
        <ele>4</ele>
        <time>2018-03-21T17:04:49Z</time>
      </trkpt>
      <trkpt lat="46.70165" lon="-1.94576">
        <ele>4</ele>
        <time>2018-03-21T17:05:49Z</time>
      </trkpt>
      <trkpt lat="46.70168" lon="-1.94427">
        <ele>4</ele>
        <time>2018-03-21T17:06:49Z</time>
      </trkpt>
      <trkpt lat="46.70183" lon="-1.94268">
        <ele>5</ele>
        <time>2018-03-21T17:07:49Z</time>
      </trkpt>
      <trkpt lat="46.70181" lon="-1.94236">
        <ele>5</ele>
        <time>2018-03-21T17:08:49Z</time>
      </trkpt>
      <trkpt lat="46.70151" lon="-1.93989">
        <ele>2</ele>
        <time>2018-03-21T17:09:49Z</time>
      </trkpt>
      <trkpt lat="46.7015" lon="-1.93956">
        <ele>3</ele>
        <time>2018-03-21T17:10:49Z</time>
      </trkpt>
      <trkpt lat="46.70147" lon="-1.93955">
        <ele>3</ele>
        <time>2018-03-21T17:11:49Z</time>
      </trkpt>
      <trkpt lat="46.70142" lon="-1.93948">
        <ele>3</ele>
        <time>2018-03-21T17:12:49Z</time>
      </trkpt>
      <trkpt lat="46.70142" lon="-1.93938">
        <ele>3</ele>
        <time>2018-03-21T17:13:49Z</time>
      </trkpt>
      <trkpt lat="46.70143" lon="-1.93933">
        <ele>3</ele>
        <time>2018-03-21T17:14:49Z</time>
      </trkpt>
      <trkpt lat="46.70114" lon="-1.93907">
        <ele>3</ele>
        <time>2018-03-21T17:15:49Z</time>
      </trkpt>
      <trkpt lat="46.70108" lon="-1.93903">
        <ele>3</ele>
        <time>2018-03-21T17:16:49Z</time>
      </trkpt>
      <trkpt lat="46.70072" lon="-1.93884">
        <ele>3</ele>
        <time>2018-03-21T17:17:49Z</time>
      </trkpt>
      <trkpt lat="46.69922" lon="-1.93828">
        <ele>1</ele>
        <time>2018-03-21T17:18:49Z</time>
      </trkpt>
      <trkpt lat="46.69922" lon="-1.93828">
        <ele>1</ele>
        <time>2018-03-21T17:19:49Z</time>
      </trkpt>
      <trkpt lat="46.69879" lon="-1.93812">
        <ele>3</ele>
        <time>2018-03-21T17:20:49Z</time>
      </trkpt>
      <trkpt lat="46.69765" lon="-1.93748">
        <ele>4</ele>
        <time>2018-03-21T17:21:49Z</time>
      </trkpt>
      <trkpt lat="46.69704" lon="-1.93707">
        <ele>3</ele>
        <time>2018-03-21T17:22:49Z</time>
      </trkpt>
      <trkpt lat="46.69617" lon="-1.93615">
        <ele>4</ele>
        <time>2018-03-21T17:23:49Z</time>
      </trkpt>
      <trkpt lat="46.69599" lon="-1.93601">
        <ele>4</ele>
        <time>2018-03-21T17:24:49Z</time>
      </trkpt>
      <trkpt lat="46.69593" lon="-1.93602">
        <ele>4</ele>
        <time>2018-03-21T17:25:49Z</time>
      </trkpt>
      <trkpt lat="46.69588" lon="-1.93598">
        <ele>4</ele>
        <time>2018-03-21T17:26:49Z</time>
      </trkpt>
      <trkpt lat="46.69586" lon="-1.93592">
        <ele>4</ele>
        <time>2018-03-21T17:27:49Z</time>
      </trkpt>
      <trkpt lat="46.69586" lon="-1.93586">
        <ele>4</ele>
        <time>2018-03-21T17:28:49Z</time>
      </trkpt>
      <trkpt lat="46.69588" lon="-1.9358">
        <ele>4</ele>
        <time>2018-03-21T17:29:49Z</time>
      </trkpt>
      <trkpt lat="46.69596" lon="-1.93577">
        <ele>4</ele>
        <time>2018-03-21T17:30:49Z</time>
      </trkpt>
      <trkpt lat="46.69615" lon="-1.9347">
        <ele>4</ele>
        <time>2018-03-21T17:31:49Z</time>
      </trkpt>
      <trkpt lat="46.69615" lon="-1.9347">
        <ele>4</ele>
        <time>2018-03-21T17:32:49Z</time>
      </trkpt>
      <trkpt lat="46.69621" lon="-1.93435">
        <ele>4</ele>
        <time>2018-03-21T17:33:49Z</time>
      </trkpt>
      <trkpt lat="46.69616" lon="-1.93426">
        <ele>4</ele>
        <time>2018-03-21T17:34:49Z</time>
      </trkpt>
      <trkpt lat="46.69617" lon="-1.93422">
        <ele>4</ele>
        <time>2018-03-21T17:35:49Z</time>
      </trkpt>
      <trkpt lat="46.69619" lon="-1.93416">
        <ele>4</ele>
        <time>2018-03-21T17:36:49Z</time>
      </trkpt>
      <trkpt lat="46.69624" lon="-1.93414">
        <ele>5</ele>
        <time>2018-03-21T17:37:49Z</time>
      </trkpt>
      <trkpt lat="46.69627" lon="-1.93415">
        <ele>5</ele>
        <time>2018-03-21T17:38:49Z</time>
      </trkpt>
      <trkpt lat="46.69631" lon="-1.93425">
        <ele>4</ele>
        <time>2018-03-21T17:39:49Z</time>
      </trkpt>
      <trkpt lat="46.69667" lon="-1.93431">
        <ele>5</ele>
        <time>2018-03-21T17:40:49Z</time>
      </trkpt>
      <trkpt lat="46.69684" lon="-1.93436">
        <ele>5</ele>
        <time>2018-03-21T17:41:49Z</time>
      </trkpt>
      <trkpt lat="46.69709" lon="-1.93437">
        <ele>5</ele>
        <time>2018-03-21T17:42:49Z</time>
      </trkpt>
      <trkpt lat="46.69777" lon="-1.93421">
        <ele>5</ele>
        <time>2018-03-21T17:43:49Z</time>
      </trkpt>
      <trkpt lat="46.69784" lon="-1.93422">
        <ele>5</ele>
        <time>2018-03-21T17:44:49Z</time>
      </trkpt>
      <trkpt lat="46.69787" lon="-1.93417">
        <ele>5</ele>
        <time>2018-03-21T17:45:49Z</time>
      </trkpt>
      <trkpt lat="46.69791" lon="-1.93418">
        <ele>5</ele>
        <time>2018-03-21T17:46:49Z</time>
      </trkpt>
      <trkpt lat="46.69793" lon="-1.9342">
        <ele>5</ele>
        <time>2018-03-21T17:47:49Z</time>
      </trkpt>
      <trkpt lat="46.69813" lon="-1.9341">
        <ele>5</ele>
        <time>2018-03-21T17:48:49Z</time>
      </trkpt>
      <trkpt lat="46.69884" lon="-1.93386">
        <ele>5</ele>
        <time>2018-03-21T17:49:49Z</time>
      </trkpt>
    </trkseg>
  </trk>
</gpx>